PWSweather.com
Personal Weather Stations
Station Observations
EI4HQ
Cork Harbour, CobhIE

Cork HarbourCobhIE

Lat: 51.85, Lon: -8.29

Elevation: 252

Station Type: Davis Vantage Pro2

http://www.corkharbourweather.ie

High Low Average
Temperature 46.9°F8.3°C 46.9°F8.3°C 46.9°F8.3°C
Dew Point 45.3°F7.4°C 45.3°F7.4°C 45.3°F7.4°C
Winds 28.0 mph 45.1 kmh 2.0 mph 3.2 kmh 15.0 mph S24.1 kmh S
Wind Gusts 43.0 mph69.2 kmh 3.0 mph4.8 kmh 24.0 mph38.6 kmh
Humidity 94% 94% 94%
Pressure 30.20 in1022.7 mb 29.83 in1010.2 mb -
Precipitation 0.00 in0.0 mm - -
Hour Temp Dew Point Humidity Winds Wind Gusts Pressure Precip Precip Rate Daily Precip Total
12:00 AM 46.9°F8.3°C 45.3°F7.4°C 94% 9.0 mph S14.5 kmh S 14.0 mph22.5 kmh 30.20 in1022.7 mb 0.00 in0.0 mm 0.00 in0.0 mm 0.00 in0.0 mm
12:03 AM 46.9°F8.3°C 45.3°F7.4°C 94% 10.0 mph S16.1 kmh S 16.0 mph25.7 kmh 30.20 in1022.7 mb 0.00 in0.0 mm 0.00 in0.0 mm 0.00 in0.0 mm
12:06 AM 46.9°F8.3°C 45.3°F7.4°C 94% 10.0 mph S16.1 kmh S 16.0 mph25.7 kmh 30.20 in1022.7 mb 0.00 in0.0 mm 0.00 in0.0 mm 0.00 in0.0 mm
12:09 AM 46.9°F8.3°C 45.3°F7.4°C 94% 11.0 mph S17.7 kmh S 16.0 mph25.7 kmh 30.20 in1022.7 mb 0.00 in0.0 mm 0.00 in0.0 mm 0.00 in0.0 mm
12:12 AM 46.9°F8.3°C 45.3°F7.4°C 94% 11.0 mph S17.7 kmh S 17.0 mph27.4 kmh 30.20 in1022.7 mb 0.00 in0.0 mm 0.00 in0.0 mm 0.00 in0.0 mm
12:15 AM 46.9°F8.3°C 45.3°F7.4°C 94% 11.0 mph S17.7 kmh S 17.0 mph27.4 kmh 30.20 in1022.7 mb 0.00 in0.0 mm 0.00 in0.0 mm 0.00 in0.0 mm
12:18 AM 46.9°F8.3°C 45.3°F7.4°C 94% 11.0 mph S17.7 kmh S 17.0 mph27.4 kmh 30.20 in1022.7 mb 0.00 in0.0 mm 0.00 in0.0 mm 0.00 in0.0 mm
12:21 AM 46.9°F8.3°C 45.3°F7.4°C 94% 11.0 mph S17.7 kmh S 17.0 mph27.4 kmh 30.20 in1022.7 mb 0.00 in0.0 mm 0.00 in0.0 mm 0.00 in0.0 mm
12:24 AM 46.9°F8.3°C 45.3°F7.4°C 94% 10.0 mph S16.1 kmh S 17.0 mph27.4 kmh 30.20 in1022.7 mb 0.00 in0.0 mm 0.00 in0.0 mm 0.00 in0.0 mm
12:27 AM 46.9°F8.3°C 45.3°F7.4°C 94% 11.0 mph S17.7 kmh S 20.0 mph32.2 kmh 30.19 in1022.4 mb 0.00 in0.0 mm 0.00 in0.0 mm 0.00 in0.0 mm
12:30 AM 46.9°F8.3°C 45.3°F7.4°C 94% 12.0 mph S19.3 kmh S 20.0 mph32.2 kmh 30.19 in1022.4 mb 0.00 in0.0 mm 0.00 in0.0 mm 0.00 in0.0 mm
12:33 AM 46.9°F8.3°C 45.3°F7.4°C 94% 13.0 mph S20.9 kmh S 20.0 mph32.2 kmh 30.19 in1022.4 mb 0.00 in0.0 mm 0.00 in0.0 mm 0.00 in0.0 mm
12:36 AM 46.9°F8.3°C 45.3°F7.4°C 94% 13.0 mph S20.9 kmh S 21.0 mph33.8 kmh 30.19 in1022.4 mb 0.00 in0.0 mm 0.00 in0.0 mm 0.00 in0.0 mm
12:39 AM 46.9°F8.3°C 45.3°F7.4°C 94% 13.0 mph S20.9 kmh S 21.0 mph33.8 kmh 30.19 in1022.4 mb 0.00 in0.0 mm 0.00 in0.0 mm 0.00 in0.0 mm
12:42 AM 46.9°F8.3°C 45.3°F7.4°C 94% 13.0 mph S20.9 kmh S 21.0 mph33.8 kmh 30.19 in1022.4 mb 0.00 in0.0 mm 0.00 in0.0 mm 0.00 in0.0 mm
12:45 AM 46.9°F8.3°C 45.3°F7.4°C 94% 11.0 mph S17.7 kmh S 16.0 mph25.7 kmh 30.19 in1022.4 mb 0.00 in0.0 mm 0.00 in0.0 mm 0.00 in0.0 mm
12:48 AM 46.9°F8.3°C 45.3°F7.4°C 94% 12.0 mph S19.3 kmh S 20.0 mph32.2 kmh 30.19 in1022.4 mb 0.00 in0.0 mm 0.00 in0.0 mm 0.00 in0.0 mm
12:51 AM 46.9°F8.3°C 45.3°F7.4°C 94% 12.0 mph S19.3 kmh S 20.0 mph32.2 kmh 30.19 in1022.4 mb 0.00 in0.0 mm 0.00 in0.0 mm 0.00 in0.0 mm
12:54 AM 46.9°F8.3°C 45.3°F7.4°C 94% 12.0 mph S19.3 kmh S 20.0 mph32.2 kmh 30.19 in1022.4 mb 0.00 in0.0 mm 0.00 in0.0 mm 0.00 in0.0 mm
12:57 AM 46.9°F8.3°C 45.3°F7.4°C 94% 12.0 mph S19.3 kmh S 20.0 mph32.2 kmh 30.19 in1022.4 mb 0.00 in0.0 mm 0.00 in0.0 mm 0.00 in0.0 mm
01:00 AM 46.9°F8.3°C 45.3°F7.4°C 94% 11.0 mph S17.7 kmh S 17.0 mph27.4 kmh 30.19 in1022.4 mb 0.00 in0.0 mm 0.00 in0.0 mm 0.00 in0.0 mm
01:03 AM 46.9°F8.3°C 45.3°F7.4°C 94% 10.0 mph S16.1 kmh S 17.0 mph27.4 kmh 30.18 in1022.0 mb 0.00 in0.0 mm 0.00 in0.0 mm 0.00 in0.0 mm
01:06 AM 46.9°F8.3°C 45.3°F7.4°C 94% 9.0 mph S14.5 kmh S 17.0 mph27.4 kmh 30.18 in1022.0 mb 0.00 in0.0 mm 0.00 in0.0 mm 0.00 in0.0 mm
01:09 AM 46.9°F8.3°C 45.3°F7.4°C 94% 9.0 mph S14.5 kmh S 16.0 mph25.7 kmh 30.18 in1022.0 mb 0.00 in0.0 mm 0.00 in0.0 mm 0.00 in0.0 mm
01:12 AM 46.9°F8.3°C 45.3°F7.4°C 94% 9.0 mph S14.5 kmh S 16.0 mph25.7 kmh 30.18 in1022.0 mb 0.00 in0.0 mm 0.00 in0.0 mm 0.00 in0.0 mm
01:15 AM 46.9°F8.3°C 45.3°F7.4°C 94% 10.0 mph S16.1 kmh S 18.0 mph29.0 kmh 30.18 in1022.0 mb 0.00 in0.0 mm 0.00 in0.0 mm 0.00 in0.0 mm
01:18 AM 46.9°F8.3°C 45.3°F7.4°C 94% 10.0 mph S16.1 kmh S 18.0 mph29.0 kmh 30.18 in1022.0 mb 0.00 in0.0 mm 0.00 in0.0 mm 0.00 in0.0 mm
01:21 AM 46.9°F8.3°C 45.3°F7.4°C 94% 11.0 mph S17.7 kmh S 18.0 mph29.0 kmh 30.18 in1022.0 mb 0.00 in0.0 mm 0.00 in0.0 mm 0.00 in0.0 mm
01:24 AM 46.9°F8.3°C 45.3°F7.4°C 94% 12.0 mph S19.3 kmh S 20.0 mph32.2 kmh 30.18 in1022.0 mb 0.00 in0.0 mm 0.00 in0.0 mm 0.00 in0.0 mm
01:27 AM 46.9°F8.3°C 45.3°F7.4°C 94% 12.0 mph S19.3 kmh S 20.0 mph32.2 kmh 30.17 in1021.7 mb 0.00 in0.0 mm 0.00 in0.0 mm 0.00 in0.0 mm
01:30 AM 46.9°F8.3°C 45.3°F7.4°C 94% 12.0 mph S19.3 kmh S 20.0 mph32.2 kmh 30.17 in1021.7 mb 0.00 in0.0 mm 0.00 in0.0 mm 0.00 in0.0 mm
01:33 AM 46.9°F8.3°C 45.3°F7.4°C 94% 12.0 mph S19.3 kmh S 18.0 mph29.0 kmh 30.17 in1021.7 mb 0.00 in0.0 mm 0.00 in0.0 mm 0.00 in0.0 mm
01:36 AM 46.9°F8.3°C 45.3°F7.4°C 94% 12.0 mph S19.3 kmh S 18.0 mph29.0 kmh 30.17 in1021.7 mb 0.00 in0.0 mm 0.00 in0.0 mm 0.00 in0.0 mm
01:39 AM 46.9°F8.3°C 45.3°F7.4°C 94% 12.0 mph S19.3 kmh S 19.0 mph30.6 kmh 30.16 in1021.3 mb 0.00 in0.0 mm 0.00 in0.0 mm 0.00 in0.0 mm
01:42 AM 46.9°F8.3°C 45.3°F7.4°C 94% 12.0 mph S19.3 kmh S 19.0 mph30.6 kmh 30.16 in1021.3 mb 0.00 in0.0 mm 0.00 in0.0 mm 0.00 in0.0 mm
01:45 AM 46.9°F8.3°C 45.3°F7.4°C 94% 11.0 mph S17.7 kmh S 19.0 mph30.6 kmh 30.16 in1021.3 mb 0.00 in0.0 mm 0.00 in0.0 mm 0.00 in0.0 mm
01:48 AM 46.9°F8.3°C 45.3°F7.4°C 94% 11.0 mph S17.7 kmh S 19.0 mph30.6 kmh 30.16 in1021.3 mb 0.00 in0.0 mm 0.00 in0.0 mm 0.00 in0.0 mm
01:51 AM 46.9°F8.3°C 45.3°F7.4°C 94% 10.0 mph S16.1 kmh S 17.0 mph27.4 kmh 30.16 in1021.3 mb 0.00 in0.0 mm 0.00 in0.0 mm 0.00 in0.0 mm
01:54 AM 46.9°F8.3°C 45.3°F7.4°C 94% 10.0 mph S16.1 kmh S 17.0 mph27.4 kmh 30.16 in1021.3 mb 0.00 in0.0 mm 0.00 in0.0 mm 0.00 in0.0 mm
01:57 AM 46.9°F8.3°C 45.3°F7.4°C 94% 11.0 mph S17.7 kmh S 17.0 mph27.4 kmh 30.16 in1021.3 mb 0.00 in0.0 mm 0.00 in0.0 mm 0.00 in0.0 mm
02:00 AM 46.9°F8.3°C 45.3°F7.4°C 94% 11.0 mph S17.7 kmh S 18.0 mph29.0 kmh 30.16 in1021.3 mb 0.00 in0.0 mm 0.00 in0.0 mm 0.00 in0.0 mm
02:03 AM 46.9°F8.3°C 45.3°F7.4°C 94% 12.0 mph S19.3 kmh S 22.0 mph35.4 kmh 30.16 in1021.3 mb 0.00 in0.0 mm 0.00 in0.0 mm 0.00 in0.0 mm
02:06 AM 46.9°F8.3°C 45.3°F7.4°C 94% 13.0 mph S20.9 kmh S 23.0 mph37.0 kmh 30.16 in1021.3 mb 0.00 in0.0 mm 0.00 in0.0 mm 0.00 in0.0 mm
02:09 AM 46.9°F8.3°C 45.3°F7.4°C 94% 14.0 mph S22.5 kmh S 23.0 mph37.0 kmh 30.16 in1021.3 mb 0.00 in0.0 mm 0.00 in0.0 mm 0.00 in0.0 mm
02:12 AM 46.9°F8.3°C 45.3°F7.4°C 94% 13.0 mph S20.9 kmh S 23.0 mph37.0 kmh 30.16 in1021.3 mb 0.00 in0.0 mm 0.00 in0.0 mm 0.00 in0.0 mm
02:15 AM 46.9°F8.3°C 45.3°F7.4°C 94% 13.0 mph S20.9 kmh S 20.0 mph32.2 kmh 30.15 in1021.0 mb 0.00 in0.0 mm 0.00 in0.0 mm 0.00 in0.0 mm
02:18 AM 46.9°F8.3°C 45.3°F7.4°C 94% 12.0 mph S19.3 kmh S 18.0 mph29.0 kmh 30.15 in1021.0 mb 0.00 in0.0 mm 0.00 in0.0 mm 0.00 in0.0 mm
02:21 AM 46.9°F8.3°C 45.3°F7.4°C 94% 11.0 mph S17.7 kmh S 18.0 mph29.0 kmh 30.15 in1021.0 mb 0.00 in0.0 mm 0.00 in0.0 mm 0.00 in0.0 mm
02:24 AM 46.9°F8.3°C 45.3°F7.4°C 94% 11.0 mph S17.7 kmh S 20.0 mph32.2 kmh 30.15 in1021.0 mb 0.00 in0.0 mm 0.00 in0.0 mm 0.00 in0.0 mm
02:27 AM 46.9°F8.3°C 45.3°F7.4°C 94% 11.0 mph S17.7 kmh S 20.0 mph32.2 kmh 30.15 in1021.0 mb 0.00 in0.0 mm 0.00 in0.0 mm 0.00 in0.0 mm
02:30 AM 46.9°F8.3°C 45.3°F7.4°C 94% 12.0 mph S19.3 kmh S 20.0 mph32.2 kmh 30.15 in1021.0 mb 0.00 in0.0 mm 0.00 in0.0 mm 0.00 in0.0 mm
02:33 AM 46.9°F8.3°C 45.3°F7.4°C 94% 12.0 mph S19.3 kmh S 20.0 mph32.2 kmh 30.15 in1021.0 mb 0.00 in0.0 mm 0.00 in0.0 mm 0.00 in0.0 mm
02:36 AM 46.9°F8.3°C 45.3°F7.4°C 94% 12.0 mph S19.3 kmh S 19.0 mph30.6 kmh 30.15 in1021.0 mb 0.00 in0.0 mm 0.00 in0.0 mm 0.00 in0.0 mm
02:39 AM 46.9°F8.3°C 45.3°F7.4°C 94% 12.0 mph S19.3 kmh S 19.0 mph30.6 kmh 30.15 in1021.0 mb 0.00 in0.0 mm 0.00 in0.0 mm 0.00 in0.0 mm
02:42 AM 46.9°F8.3°C 45.3°F7.4°C 94% 12.0 mph S19.3 kmh S 19.0 mph30.6 kmh 30.15 in1021.0 mb 0.00 in0.0 mm 0.00 in0.0 mm 0.00 in0.0 mm
02:45 AM 46.9°F8.3°C 45.3°F7.4°C 94% 12.0 mph S19.3 kmh S 20.0 mph32.2 kmh 30.15 in1021.0 mb 0.00 in0.0 mm 0.00 in0.0 mm 0.00 in0.0 mm
02:48 AM 46.9°F8.3°C 45.3°F7.4°C 94% 13.0 mph S20.9 kmh S 24.0 mph38.6 kmh 30.14 in1020.7 mb 0.00 in0.0 mm 0.00 in0.0 mm 0.00 in0.0 mm
02:51 AM 46.9°F8.3°C 45.3°F7.4°C 94% 13.0 mph S20.9 kmh S 24.0 mph38.6 kmh 30.14 in1020.7 mb 0.00 in0.0 mm 0.00 in0.0 mm 0.00 in0.0 mm
02:54 AM 46.9°F8.3°C 45.3°F7.4°C 94% 14.0 mph S22.5 kmh S 24.0 mph38.6 kmh 30.14 in1020.7 mb 0.00 in0.0 mm 0.00 in0.0 mm 0.00 in0.0 mm
02:57 AM 46.9°F8.3°C 45.3°F7.4°C 94% 13.0 mph S20.9 kmh S 18.0 mph29.0 kmh 30.14 in1020.7 mb 0.00 in0.0 mm 0.00 in0.0 mm 0.00 in0.0 mm
03:00 AM 46.9°F8.3°C 45.3°F7.4°C 94% 12.0 mph S19.3 kmh S 18.0 mph29.0 kmh 30.14 in1020.7 mb 0.00 in0.0 mm 0.00 in0.0 mm 0.00 in0.0 mm
03:03 AM 46.9°F8.3°C 45.3°F7.4°C 94% 12.0 mph S19.3 kmh S 18.0 mph29.0 kmh 30.14 in1020.7 mb 0.00 in0.0 mm 0.00 in0.0 mm 0.00 in0.0 mm
03:06 AM 46.9°F8.3°C 45.3°F7.4°C 94% 11.0 mph S17.7 kmh S 18.0 mph29.0 kmh 30.14 in1020.7 mb 0.00 in0.0 mm 0.00 in0.0 mm 0.00 in0.0 mm
03:09 AM 46.9°F8.3°C 45.3°F7.4°C 94% 10.0 mph S16.1 kmh S 18.0 mph29.0 kmh 30.14 in1020.7 mb 0.00 in0.0 mm 0.00 in0.0 mm 0.00 in0.0 mm
03:12 AM 46.9°F8.3°C 45.3°F7.4°C 94% 10.0 mph S16.1 kmh S 17.0 mph27.4 kmh 30.14 in1020.7 mb 0.00 in0.0 mm 0.00 in0.0 mm 0.00 in0.0 mm
03:15 AM 46.9°F8.3°C 45.3°F7.4°C 94% 11.0 mph S17.7 kmh S 17.0 mph27.4 kmh 30.14 in1020.7 mb 0.00 in0.0 mm 0.00 in0.0 mm 0.00 in0.0 mm
03:18 AM 46.9°F8.3°C 45.3°F7.4°C 94% 12.0 mph S19.3 kmh S 18.0 mph29.0 kmh 30.14 in1020.7 mb 0.00 in0.0 mm 0.00 in0.0 mm 0.00 in0.0 mm
03:21 AM 46.9°F8.3°C 45.3°F7.4°C 94% 12.0 mph S19.3 kmh S 18.0 mph29.0 kmh 30.14 in1020.7 mb 0.00 in0.0 mm 0.00 in0.0 mm 0.00 in0.0 mm
03:24 AM 46.9°F8.3°C 45.3°F7.4°C 94% 12.0 mph S19.3 kmh S 18.0 mph29.0 kmh 30.14 in1020.7 mb 0.00 in0.0 mm 0.00 in0.0 mm 0.00 in0.0 mm
03:27 AM 46.9°F8.3°C 45.3°F7.4°C 94% 12.0 mph S19.3 kmh S 18.0 mph29.0 kmh 30.14 in1020.7 mb 0.00 in0.0 mm 0.00 in0.0 mm 0.00 in0.0 mm
03:30 AM 46.9°F8.3°C 45.3°F7.4°C 94% 12.0 mph S19.3 kmh S 18.0 mph29.0 kmh 30.13 in1020.3 mb 0.00 in0.0 mm 0.00 in0.0 mm 0.00 in0.0 mm
03:33 AM 46.9°F8.3°C 45.3°F7.4°C 94% 12.0 mph S19.3 kmh S 17.0 mph27.4 kmh 30.13 in1020.3 mb 0.00 in0.0 mm 0.00 in0.0 mm 0.00 in0.0 mm
03:36 AM 46.9°F8.3°C 45.3°F7.4°C 94% 12.0 mph S19.3 kmh S 19.0 mph30.6 kmh 30.13 in1020.3 mb 0.00 in0.0 mm 0.00 in0.0 mm 0.00 in0.0 mm
03:39 AM 46.9°F8.3°C 45.3°F7.4°C 94% 12.0 mph S19.3 kmh S 19.0 mph30.6 kmh 30.13 in1020.3 mb 0.00 in0.0 mm 0.00 in0.0 mm 0.00 in0.0 mm
03:42 AM 46.9°F8.3°C 45.3°F7.4°C 94% 11.0 mph S17.7 kmh S 19.0 mph30.6 kmh 30.13 in1020.3 mb 0.00 in0.0 mm 0.00 in0.0 mm 0.00 in0.0 mm
03:45 AM 46.9°F8.3°C 45.3°F7.4°C 94% 10.0 mph S16.1 kmh S 16.0 mph25.7 kmh 30.13 in1020.3 mb 0.00 in0.0 mm 0.00 in0.0 mm 0.00 in0.0 mm
03:48 AM 46.9°F8.3°C 45.3°F7.4°C 94% 10.0 mph S16.1 kmh S 15.0 mph24.1 kmh 30.13 in1020.3 mb 0.00 in0.0 mm 0.00 in0.0 mm 0.00 in0.0 mm
03:51 AM 46.9°F8.3°C 45.3°F7.4°C 94% 10.0 mph S16.1 kmh S 15.0 mph24.1 kmh 30.13 in1020.3 mb 0.00 in0.0 mm 0.00 in0.0 mm 0.00 in0.0 mm
03:54 AM 46.9°F8.3°C 45.3°F7.4°C 94% 11.0 mph S17.7 kmh S 17.0 mph27.4 kmh 30.13 in1020.3 mb 0.00 in0.0 mm 0.00 in0.0 mm 0.00 in0.0 mm
03:57 AM 46.9°F8.3°C 45.3°F7.4°C 94% 12.0 mph S19.3 kmh S 18.0 mph29.0 kmh 30.13 in1020.3 mb 0.00 in0.0 mm 0.00 in0.0 mm 0.00 in0.0 mm
04:00 AM 46.9°F8.3°C 45.3°F7.4°C 94% 12.0 mph S19.3 kmh S 18.0 mph29.0 kmh 30.13 in1020.3 mb 0.00 in0.0 mm 0.00 in0.0 mm 0.00 in0.0 mm
04:03 AM 46.9°F8.3°C 45.3°F7.4°C 94% 12.0 mph S19.3 kmh S 18.0 mph29.0 kmh 30.12 in1020.0 mb 0.00 in0.0 mm 0.00 in0.0 mm 0.00 in0.0 mm
04:06 AM 46.9°F8.3°C 45.3°F7.4°C 94% 11.0 mph S17.7 kmh S 17.0 mph27.4 kmh 30.12 in1020.0 mb 0.00 in0.0 mm 0.00 in0.0 mm 0.00 in0.0 mm
04:09 AM 46.9°F8.3°C 45.3°F7.4°C 94% 10.0 mph S16.1 kmh S 17.0 mph27.4 kmh 30.12 in1020.0 mb 0.00 in0.0 mm 0.00 in0.0 mm 0.00 in0.0 mm
04:12 AM 46.9°F8.3°C 45.3°F7.4°C 94% 10.0 mph S16.1 kmh S 17.0 mph27.4 kmh 30.12 in1020.0 mb 0.00 in0.0 mm 0.00 in0.0 mm 0.00 in0.0 mm
04:15 AM 46.9°F8.3°C 45.3°F7.4°C 94% 10.0 mph S16.1 kmh S 17.0 mph27.4 kmh 30.12 in1020.0 mb 0.00 in0.0 mm 0.00 in0.0 mm 0.00 in0.0 mm
04:18 AM 46.9°F8.3°C 45.3°F7.4°C 94% 12.0 mph SSE19.3 kmh SSE 22.0 mph35.4 kmh 30.12 in1020.0 mb 0.00 in0.0 mm 0.00 in0.0 mm 0.00 in0.0 mm
04:21 AM 46.9°F8.3°C 45.3°F7.4°C 94% 13.0 mph SSE20.9 kmh SSE 22.0 mph35.4 kmh 30.12 in1020.0 mb 0.00 in0.0 mm 0.00 in0.0 mm 0.00 in0.0 mm
04:24 AM 46.9°F8.3°C 45.3°F7.4°C 94% 15.0 mph SSE24.1 kmh SSE 23.0 mph37.0 kmh 30.11 in1019.6 mb 0.00 in0.0 mm 0.00 in0.0 mm 0.00 in0.0 mm
04:27 AM 46.9°F8.3°C 45.3°F7.4°C 94% 15.0 mph SSE24.1 kmh SSE 24.0 mph38.6 kmh 30.11 in1019.6 mb 0.00 in0.0 mm 0.00 in0.0 mm 0.00 in0.0 mm
04:30 AM 46.9°F8.3°C 45.3°F7.4°C 94% 15.0 mph SSE24.1 kmh SSE 24.0 mph38.6 kmh 30.11 in1019.6 mb 0.00 in0.0 mm 0.00 in0.0 mm 0.00 in0.0 mm
04:33 AM 46.9°F8.3°C 45.3°F7.4°C 94% 15.0 mph SSE24.1 kmh SSE 24.0 mph38.6 kmh 30.11 in1019.6 mb 0.00 in0.0 mm 0.00 in0.0 mm 0.00 in0.0 mm
04:36 AM 46.9°F8.3°C 45.3°F7.4°C 94% 15.0 mph SSE24.1 kmh SSE 24.0 mph38.6 kmh 30.11 in1019.6 mb 0.00 in0.0 mm 0.00 in0.0 mm 0.00 in0.0 mm
04:39 AM 46.9°F8.3°C 45.3°F7.4°C 94% 16.0 mph SSE25.7 kmh SSE 27.0 mph43.5 kmh 30.10 in1019.3 mb 0.00 in0.0 mm 0.00 in0.0 mm 0.00 in0.0 mm
04:42 AM 46.9°F8.3°C 45.3°F7.4°C 94% 16.0 mph SSE25.7 kmh SSE 27.0 mph43.5 kmh 30.11 in1019.6 mb 0.00 in0.0 mm 0.00 in0.0 mm 0.00 in0.0 mm
04:45 AM 46.9°F8.3°C 45.3°F7.4°C 94% 16.0 mph SSE25.7 kmh SSE 27.0 mph43.5 kmh 30.10 in1019.3 mb 0.00 in0.0 mm 0.00 in0.0 mm 0.00 in0.0 mm
04:48 AM 46.9°F8.3°C 45.3°F7.4°C 94% 15.0 mph SSE24.1 kmh SSE 27.0 mph43.5 kmh 30.10 in1019.3 mb 0.00 in0.0 mm 0.00 in0.0 mm 0.00 in0.0 mm
04:51 AM 46.9°F8.3°C 45.3°F7.4°C 94% 14.0 mph SSE22.5 kmh SSE 21.0 mph33.8 kmh 30.10 in1019.3 mb 0.00 in0.0 mm 0.00 in0.0 mm 0.00 in0.0 mm
04:54 AM 46.9°F8.3°C 45.3°F7.4°C 94% 14.0 mph SSE22.5 kmh SSE 21.0 mph33.8 kmh 30.10 in1019.3 mb 0.00 in0.0 mm 0.00 in0.0 mm 0.00 in0.0 mm
04:57 AM 46.9°F8.3°C 45.3°F7.4°C 94% 14.0 mph SSE22.5 kmh SSE 21.0 mph33.8 kmh 30.10 in1019.3 mb 0.00 in0.0 mm 0.00 in0.0 mm 0.00 in0.0 mm
05:00 AM 46.9°F8.3°C 45.3°F7.4°C 94% 14.0 mph SSE22.5 kmh SSE 21.0 mph33.8 kmh 30.10 in1019.3 mb 0.00 in0.0 mm 0.00 in0.0 mm 0.00 in0.0 mm
05:03 AM 46.9°F8.3°C 45.3°F7.4°C 94% 15.0 mph SSE24.1 kmh SSE 22.0 mph35.4 kmh 30.10 in1019.3 mb 0.00 in0.0 mm 0.00 in0.0 mm 0.00 in0.0 mm
05:06 AM 46.9°F8.3°C 45.3°F7.4°C 94% 15.0 mph SSE24.1 kmh SSE 23.0 mph37.0 kmh 30.10 in1019.3 mb 0.00 in0.0 mm 0.00 in0.0 mm 0.00 in0.0 mm
05:09 AM 46.9°F8.3°C 45.3°F7.4°C 94% 16.0 mph SSE25.7 kmh SSE 24.0 mph38.6 kmh 30.10 in1019.3 mb 0.00 in0.0 mm 0.00 in0.0 mm 0.00 in0.0 mm
05:12 AM 46.9°F8.3°C 45.3°F7.4°C 94% 16.0 mph SSE25.7 kmh SSE 24.0 mph38.6 kmh 30.09 in1019.0 mb 0.00 in0.0 mm 0.00 in0.0 mm 0.00 in0.0 mm
05:15 AM 46.9°F8.3°C 45.3°F7.4°C 94% 16.0 mph SSE25.7 kmh SSE 25.0 mph40.2 kmh 30.09 in1019.0 mb 0.00 in0.0 mm 0.00 in0.0 mm 0.00 in0.0 mm
05:18 AM 46.9°F8.3°C 45.3°F7.4°C 94% 16.0 mph SSE25.7 kmh SSE 25.0 mph40.2 kmh 30.09 in1019.0 mb 0.00 in0.0 mm 0.00 in0.0 mm 0.00 in0.0 mm
05:21 AM 46.9°F8.3°C 45.3°F7.4°C 94% 16.0 mph SSE25.7 kmh SSE 25.0 mph40.2 kmh 30.09 in1019.0 mb 0.00 in0.0 mm 0.00 in0.0 mm 0.00 in0.0 mm
05:24 AM 46.9°F8.3°C 45.3°F7.4°C 94% 15.0 mph SSE24.1 kmh SSE 24.0 mph38.6 kmh 30.09 in1019.0 mb 0.00 in0.0 mm 0.00 in0.0 mm 0.00 in0.0 mm
05:27 AM 46.9°F8.3°C 45.3°F7.4°C 94% 15.0 mph SSE24.1 kmh SSE 23.0 mph37.0 kmh 30.09 in1019.0 mb 0.00 in0.0 mm 0.00 in0.0 mm 0.00 in0.0 mm
05:30 AM 46.9°F8.3°C 45.3°F7.4°C 94% 14.0 mph SSE22.5 kmh SSE 22.0 mph35.4 kmh 30.08 in1018.6 mb 0.00 in0.0 mm 0.00 in0.0 mm 0.00 in0.0 mm
05:33 AM 46.9°F8.3°C 45.3°F7.4°C 94% 14.0 mph SSE22.5 kmh SSE 25.0 mph40.2 kmh 30.08 in1018.6 mb 0.00 in0.0 mm 0.00 in0.0 mm 0.00 in0.0 mm
05:36 AM 46.9°F8.3°C 45.3°F7.4°C 94% 16.0 mph SSE25.7 kmh SSE 25.0 mph40.2 kmh 30.08 in1018.6 mb 0.00 in0.0 mm 0.00 in0.0 mm 0.00 in0.0 mm
05:39 AM 46.9°F8.3°C 45.3°F7.4°C 94% 17.0 mph SSE27.4 kmh SSE 28.0 mph45.1 kmh 30.08 in1018.6 mb 0.00 in0.0 mm 0.00 in0.0 mm 0.00 in0.0 mm
05:42 AM 46.9°F8.3°C 45.3°F7.4°C 94% 17.0 mph SSE27.4 kmh SSE 28.0 mph45.1 kmh 30.08 in1018.6 mb 0.00 in0.0 mm 0.00 in0.0 mm 0.00 in0.0 mm
05:45 AM 46.9°F8.3°C 45.3°F7.4°C 94% 17.0 mph SSE27.4 kmh SSE 28.0 mph45.1 kmh 30.07 in1018.3 mb 0.00 in0.0 mm 0.00 in0.0 mm 0.00 in0.0 mm
05:48 AM 46.9°F8.3°C 45.3°F7.4°C 94% 17.0 mph SSE27.4 kmh SSE 28.0 mph45.1 kmh 30.07 in1018.3 mb 0.00 in0.0 mm 0.00 in0.0 mm 0.00 in0.0 mm
05:51 AM 46.9°F8.3°C 45.3°F7.4°C 94% 17.0 mph SSE27.4 kmh SSE 26.0 mph41.8 kmh 30.07 in1018.3 mb 0.00 in0.0 mm 0.00 in0.0 mm 0.00 in0.0 mm
05:54 AM 46.9°F8.3°C 45.3°F7.4°C 94% 17.0 mph SSE27.4 kmh SSE 26.0 mph41.8 kmh 30.07 in1018.3 mb 0.00 in0.0 mm 0.00 in0.0 mm 0.00 in0.0 mm
05:57 AM 46.9°F8.3°C 45.3°F7.4°C 94% 17.0 mph SSE27.4 kmh SSE 26.0 mph41.8 kmh 30.07 in1018.3 mb 0.00 in0.0 mm 0.00 in0.0 mm 0.00 in0.0 mm
06:00 AM 46.9°F8.3°C 45.3°F7.4°C 94% 16.0 mph SSE25.7 kmh SSE 26.0 mph41.8 kmh 30.07 in1018.3 mb 0.00 in0.0 mm 0.00 in0.0 mm 0.00 in0.0 mm
06:03 AM 46.9°F8.3°C 45.3°F7.4°C 94% 15.0 mph SSE24.1 kmh SSE 22.0 mph35.4 kmh 30.07 in1018.3 mb 0.00 in0.0 mm 0.00 in0.0 mm 0.00 in0.0 mm
06:06 AM 46.9°F8.3°C 45.3°F7.4°C 94% 15.0 mph SSE24.1 kmh SSE 22.0 mph35.4 kmh 30.07 in1018.3 mb 0.00 in0.0 mm 0.00 in0.0 mm 0.00 in0.0 mm
06:09 AM 46.9°F8.3°C 45.3°F7.4°C 94% 15.0 mph SSE24.1 kmh SSE 24.0 mph38.6 kmh 30.07 in1018.3 mb 0.00 in0.0 mm 0.00 in0.0 mm 0.00 in0.0 mm
06:12 AM 46.9°F8.3°C 45.3°F7.4°C 94% 16.0 mph SSE25.7 kmh SSE 24.0 mph38.6 kmh 30.06 in1017.9 mb 0.00 in0.0 mm 0.00 in0.0 mm 0.00 in0.0 mm
06:15 AM 46.9°F8.3°C 45.3°F7.4°C 94% 16.0 mph SSE25.7 kmh SSE 24.0 mph38.6 kmh 30.06 in1017.9 mb 0.00 in0.0 mm 0.00 in0.0 mm 0.00 in0.0 mm
06:18 AM 46.9°F8.3°C 45.3°F7.4°C 94% 16.0 mph SSE25.7 kmh SSE 24.0 mph38.6 kmh 30.06 in1017.9 mb 0.00 in0.0 mm 0.00 in0.0 mm 0.00 in0.0 mm
06:21 AM 46.9°F8.3°C 45.3°F7.4°C 94% 16.0 mph SSE25.7 kmh SSE 23.0 mph37.0 kmh 30.06 in1017.9 mb 0.00 in0.0 mm 0.00 in0.0 mm 0.00 in0.0 mm
06:24 AM 46.9°F8.3°C 45.3°F7.4°C 94% 16.0 mph SSE25.7 kmh SSE 23.0 mph37.0 kmh 30.05 in1017.6 mb 0.00 in0.0 mm 0.00 in0.0 mm 0.00 in0.0 mm
06:27 AM 46.9°F8.3°C 45.3°F7.4°C 94% 16.0 mph SSE25.7 kmh SSE 24.0 mph38.6 kmh 30.05 in1017.6 mb 0.00 in0.0 mm 0.00 in0.0 mm 0.00 in0.0 mm
06:30 AM 46.9°F8.3°C 45.3°F7.4°C 94% 17.0 mph SSE27.4 kmh SSE 28.0 mph45.1 kmh 30.05 in1017.6 mb 0.00 in0.0 mm 0.00 in0.0 mm 0.00 in0.0 mm
06:33 AM 46.9°F8.3°C 45.3°F7.4°C 94% 18.0 mph SSE29.0 kmh SSE 28.0 mph45.1 kmh 30.05 in1017.6 mb 0.00 in0.0 mm 0.00 in0.0 mm 0.00 in0.0 mm
06:36 AM 46.9°F8.3°C 45.3°F7.4°C 94% 18.0 mph SSE29.0 kmh SSE 28.0 mph45.1 kmh 30.05 in1017.6 mb 0.00 in0.0 mm 0.00 in0.0 mm 0.00 in0.0 mm
06:39 AM 46.9°F8.3°C 45.3°F7.4°C 94% 17.0 mph SSE27.4 kmh SSE 28.0 mph45.1 kmh 30.05 in1017.6 mb 0.00 in0.0 mm 0.00 in0.0 mm 0.00 in0.0 mm
06:42 AM 46.9°F8.3°C 45.3°F7.4°C 94% 17.0 mph SSE27.4 kmh SSE 26.0 mph41.8 kmh 30.05 in1017.6 mb 0.00 in0.0 mm 0.00 in0.0 mm 0.00 in0.0 mm
06:45 AM 46.9°F8.3°C 45.3°F7.4°C 94% 17.0 mph SSE27.4 kmh SSE 26.0 mph41.8 kmh 30.05 in1017.6 mb 0.00 in0.0 mm 0.00 in0.0 mm 0.00 in0.0 mm
06:48 AM 46.9°F8.3°C 45.3°F7.4°C 94% 17.0 mph SSE27.4 kmh SSE 27.0 mph43.5 kmh 30.05 in1017.6 mb 0.00 in0.0 mm 0.00 in0.0 mm 0.00 in0.0 mm
06:51 AM 46.9°F8.3°C 45.3°F7.4°C 94% 18.0 mph SSE29.0 kmh SSE 29.0 mph46.7 kmh 30.05 in1017.6 mb 0.00 in0.0 mm 0.00 in0.0 mm 0.00 in0.0 mm
06:54 AM 46.9°F8.3°C 45.3°F7.4°C 94% 19.0 mph SSE30.6 kmh SSE 29.0 mph46.7 kmh 30.05 in1017.6 mb 0.00 in0.0 mm 0.00 in0.0 mm 0.00 in0.0 mm
06:57 AM 46.9°F8.3°C 45.3°F7.4°C 94% 19.0 mph SSE30.6 kmh SSE 29.0 mph46.7 kmh 30.05 in1017.6 mb 0.00 in0.0 mm 0.00 in0.0 mm 0.00 in0.0 mm
07:00 AM 46.9°F8.3°C 45.3°F7.4°C 94% 19.0 mph SSE30.6 kmh SSE 28.0 mph45.1 kmh 30.05 in1017.6 mb 0.00 in0.0 mm 0.00 in0.0 mm 0.00 in0.0 mm
07:03 AM 46.9°F8.3°C 45.3°F7.4°C 94% 18.0 mph SSE29.0 kmh SSE 27.0 mph43.5 kmh 30.05 in1017.6 mb 0.00 in0.0 mm 0.00 in0.0 mm 0.00 in0.0 mm
07:06 AM 46.9°F8.3°C 45.3°F7.4°C 94% 18.0 mph SSE29.0 kmh SSE 27.0 mph43.5 kmh 30.05 in1017.6 mb 0.00 in0.0 mm 0.00 in0.0 mm 0.00 in0.0 mm
07:09 AM 46.9°F8.3°C 45.3°F7.4°C 94% 18.0 mph SSE29.0 kmh SSE 27.0 mph43.5 kmh 30.05 in1017.6 mb 0.00 in0.0 mm 0.00 in0.0 mm 0.00 in0.0 mm
07:12 AM 46.9°F8.3°C 45.3°F7.4°C 94% 19.0 mph SSE30.6 kmh SSE 29.0 mph46.7 kmh 30.05 in1017.6 mb 0.00 in0.0 mm 0.00 in0.0 mm 0.00 in0.0 mm
07:15 AM 46.9°F8.3°C 45.3°F7.4°C 94% 19.0 mph SSE30.6 kmh SSE 31.0 mph49.9 kmh 30.05 in1017.6 mb 0.00 in0.0 mm 0.00 in0.0 mm 0.00 in0.0 mm
07:18 AM 46.9°F8.3°C 45.3°F7.4°C 94% 20.0 mph SSE32.2 kmh SSE 31.0 mph49.9 kmh 30.05 in1017.6 mb 0.00 in0.0 mm 0.00 in0.0 mm 0.00 in0.0 mm
07:21 AM 46.9°F8.3°C 45.3°F7.4°C 94% 19.0 mph SSE30.6 kmh SSE 31.0 mph49.9 kmh 30.05 in1017.6 mb 0.00 in0.0 mm 0.00 in0.0 mm 0.00 in0.0 mm
07:24 AM 46.9°F8.3°C 45.3°F7.4°C 94% 19.0 mph SSE30.6 kmh SSE 27.0 mph43.5 kmh 30.05 in1017.6 mb 0.00 in0.0 mm 0.00 in0.0 mm 0.00 in0.0 mm
07:27 AM 46.9°F8.3°C 45.3°F7.4°C 94% 19.0 mph SSE30.6 kmh SSE 29.0 mph46.7 kmh 30.05 in1017.6 mb 0.00 in0.0 mm 0.00 in0.0 mm 0.00 in0.0 mm
07:30 AM 46.9°F8.3°C 45.3°F7.4°C 94% 19.0 mph SSE30.6 kmh SSE 29.0 mph46.7 kmh 30.04 in1017.3 mb 0.00 in0.0 mm 0.00 in0.0 mm 0.00 in0.0 mm
07:33 AM 46.9°F8.3°C 45.3°F7.4°C 94% 20.0 mph SSE32.2 kmh SSE 29.0 mph46.7 kmh 30.05 in1017.6 mb 0.00 in0.0 mm 0.00 in0.0 mm 0.00 in0.0 mm
07:36 AM 46.9°F8.3°C 45.3°F7.4°C 94% 20.0 mph SSE32.2 kmh SSE 29.0 mph46.7 kmh 30.04 in1017.3 mb 0.00 in0.0 mm 0.00 in0.0 mm 0.00 in0.0 mm
07:39 AM 46.9°F8.3°C 45.3°F7.4°C 94% 20.0 mph SSE32.2 kmh SSE 29.0 mph46.7 kmh 30.04 in1017.3 mb 0.00 in0.0 mm 0.00 in0.0 mm 0.00 in0.0 mm
07:42 AM 46.9°F8.3°C 45.3°F7.4°C 94% 20.0 mph SSE32.2 kmh SSE 32.0 mph51.5 kmh 30.04 in1017.3 mb 0.00 in0.0 mm 0.00 in0.0 mm 0.00 in0.0 mm
07:45 AM 46.9°F8.3°C 45.3°F7.4°C 94% 20.0 mph SSE32.2 kmh SSE 32.0 mph51.5 kmh 30.04 in1017.3 mb 0.00 in0.0 mm 0.00 in0.0 mm 0.00 in0.0 mm
07:48 AM 46.9°F8.3°C 45.3°F7.4°C 94% 20.0 mph SSE32.2 kmh SSE 32.0 mph51.5 kmh 30.04 in1017.3 mb 0.00 in0.0 mm 0.00 in0.0 mm 0.00 in0.0 mm
07:51 AM 46.9°F8.3°C 45.3°F7.4°C 94% 19.0 mph SSE30.6 kmh SSE 32.0 mph51.5 kmh 30.04 in1017.3 mb 0.00 in0.0 mm 0.00 in0.0 mm 0.00 in0.0 mm
07:54 AM 46.9°F8.3°C 45.3°F7.4°C 94% 18.0 mph SSE29.0 kmh SSE 27.0 mph43.5 kmh 30.04 in1017.3 mb 0.00 in0.0 mm 0.00 in0.0 mm 0.00 in0.0 mm
07:57 AM 46.9°F8.3°C 45.3°F7.4°C 94% 19.0 mph SSE30.6 kmh SSE 28.0 mph45.1 kmh 30.03 in1016.9 mb 0.00 in0.0 mm 0.00 in0.0 mm 0.00 in0.0 mm
08:00 AM 46.9°F8.3°C 45.3°F7.4°C 94% 18.0 mph SSE29.0 kmh SSE 28.0 mph45.1 kmh 30.03 in1016.9 mb 0.00 in0.0 mm 0.00 in0.0 mm 0.00 in0.0 mm
08:03 AM 46.9°F8.3°C 45.3°F7.4°C 94% 19.0 mph SSE30.6 kmh SSE 29.0 mph46.7 kmh 30.03 in1016.9 mb 0.00 in0.0 mm 0.00 in0.0 mm 0.00 in0.0 mm
08:06 AM 46.9°F8.3°C 45.3°F7.4°C 94% 18.0 mph SSE29.0 kmh SSE 29.0 mph46.7 kmh 30.03 in1016.9 mb 0.00 in0.0 mm 0.00 in0.0 mm 0.00 in0.0 mm
08:09 AM 46.9°F8.3°C 45.3°F7.4°C 94% 19.0 mph SSE30.6 kmh SSE 29.0 mph46.7 kmh 30.03 in1016.9 mb 0.00 in0.0 mm 0.00 in0.0 mm 0.00 in0.0 mm
08:12 AM 46.9°F8.3°C 45.3°F7.4°C 94% 19.0 mph SSE30.6 kmh SSE 29.0 mph46.7 kmh 30.03 in1016.9 mb 0.00 in0.0 mm 0.00 in0.0 mm 0.00 in0.0 mm
08:15 AM 46.9°F8.3°C 45.3°F7.4°C 94% 19.0 mph SSE30.6 kmh SSE 29.0 mph46.7 kmh 30.03 in1016.9 mb 0.00 in0.0 mm 0.00 in0.0 mm 0.00 in0.0 mm
08:18 AM 46.9°F8.3°C 45.3°F7.4°C 94% 19.0 mph SSE30.6 kmh SSE 31.0 mph49.9 kmh 30.03 in1016.9 mb 0.00 in0.0 mm 0.00 in0.0 mm 0.00 in0.0 mm
08:21 AM 46.9°F8.3°C 45.3°F7.4°C 94% 19.0 mph SSE30.6 kmh SSE 31.0 mph49.9 kmh 30.02 in1016.6 mb 0.00 in0.0 mm 0.00 in0.0 mm 0.00 in0.0 mm
08:24 AM 46.9°F8.3°C 45.3°F7.4°C 94% 20.0 mph SSE32.2 kmh SSE 31.0 mph49.9 kmh 30.02 in1016.6 mb 0.00 in0.0 mm 0.00 in0.0 mm 0.00 in0.0 mm
08:27 AM 46.9°F8.3°C 45.3°F7.4°C 94% 20.0 mph SSE32.2 kmh SSE 31.0 mph49.9 kmh 30.02 in1016.6 mb 0.00 in0.0 mm 0.00 in0.0 mm 0.00 in0.0 mm
08:30 AM 46.9°F8.3°C 45.3°F7.4°C 94% 21.0 mph SSE33.8 kmh SSE 34.0 mph54.7 kmh 30.02 in1016.6 mb 0.00 in0.0 mm 0.00 in0.0 mm 0.00 in0.0 mm
08:33 AM 46.9°F8.3°C 45.3°F7.4°C 94% 22.0 mph SSE35.4 kmh SSE 34.0 mph54.7 kmh 30.02 in1016.6 mb 0.00 in0.0 mm 0.00 in0.0 mm 0.00 in0.0 mm
08:36 AM 46.9°F8.3°C 45.3°F7.4°C 94% 23.0 mph SSE37.0 kmh SSE 34.0 mph54.7 kmh 30.02 in1016.6 mb 0.00 in0.0 mm 0.00 in0.0 mm 0.00 in0.0 mm
08:39 AM 46.9°F8.3°C 45.3°F7.4°C 94% 23.0 mph SSE37.0 kmh SSE 34.0 mph54.7 kmh 30.02 in1016.6 mb 0.00 in0.0 mm 0.00 in0.0 mm 0.00 in0.0 mm
08:42 AM 46.9°F8.3°C 45.3°F7.4°C 94% 22.0 mph SSE35.4 kmh SSE 33.0 mph53.1 kmh 30.02 in1016.6 mb 0.00 in0.0 mm 0.00 in0.0 mm 0.00 in0.0 mm
08:45 AM 46.9°F8.3°C 45.3°F7.4°C 94% 21.0 mph SSE33.8 kmh SSE 33.0 mph53.1 kmh 30.02 in1016.6 mb 0.00 in0.0 mm 0.00 in0.0 mm 0.00 in0.0 mm
08:48 AM 46.9°F8.3°C 45.3°F7.4°C 94% 21.0 mph SSE33.8 kmh SSE 33.0 mph53.1 kmh 30.02 in1016.6 mb 0.00 in0.0 mm 0.00 in0.0 mm 0.00 in0.0 mm
08:51 AM 46.9°F8.3°C 45.3°F7.4°C 94% 21.0 mph SSE33.8 kmh SSE 32.0 mph51.5 kmh 30.02 in1016.6 mb 0.00 in0.0 mm 0.00 in0.0 mm 0.00 in0.0 mm
08:54 AM 46.9°F8.3°C 45.3°F7.4°C 94% 22.0 mph SSE35.4 kmh SSE 33.0 mph53.1 kmh 30.02 in1016.6 mb 0.00 in0.0 mm 0.00 in0.0 mm 0.00 in0.0 mm
08:57 AM 46.9°F8.3°C 45.3°F7.4°C 94% 23.0 mph SSE37.0 kmh SSE 33.0 mph53.1 kmh 30.02 in1016.6 mb 0.00 in0.0 mm 0.00 in0.0 mm 0.00 in0.0 mm
09:00 AM 46.9°F8.3°C 45.3°F7.4°C 94% 23.0 mph SSE37.0 kmh SSE 33.0 mph53.1 kmh 30.02 in1016.6 mb 0.00 in0.0 mm 0.00 in0.0 mm 0.00 in0.0 mm
09:03 AM 46.9°F8.3°C 45.3°F7.4°C 94% 23.0 mph SSE37.0 kmh SSE 34.0 mph54.7 kmh 30.01 in1016.3 mb 0.00 in0.0 mm 0.00 in0.0 mm 0.00 in0.0 mm
09:06 AM 46.9°F8.3°C 45.3°F7.4°C 94% 24.0 mph SSE38.6 kmh SSE 35.0 mph56.3 kmh 30.01 in1016.3 mb 0.00 in0.0 mm 0.00 in0.0 mm 0.00 in0.0 mm
09:09 AM 46.9°F8.3°C 45.3°F7.4°C 94% 23.0 mph SSE37.0 kmh SSE 35.0 mph56.3 kmh 30.01 in1016.3 mb 0.00 in0.0 mm 0.00 in0.0 mm 0.00 in0.0 mm
09:12 AM 46.9°F8.3°C 45.3°F7.4°C 94% 24.0 mph SSE38.6 kmh SSE 37.0 mph59.5 kmh 30.01 in1016.3 mb 0.00 in0.0 mm 0.00 in0.0 mm 0.00 in0.0 mm
09:15 AM 46.9°F8.3°C 45.3°F7.4°C 94% 24.0 mph SSE38.6 kmh SSE 37.0 mph59.5 kmh 30.01 in1016.3 mb 0.00 in0.0 mm 0.00 in0.0 mm 0.00 in0.0 mm
09:18 AM 46.9°F8.3°C 45.3°F7.4°C 94% 24.0 mph SSE38.6 kmh SSE 37.0 mph59.5 kmh 30.01 in1016.3 mb 0.00 in0.0 mm 0.00 in0.0 mm 0.00 in0.0 mm
09:21 AM 46.9°F8.3°C 45.3°F7.4°C 94% 24.0 mph SSE38.6 kmh SSE 35.0 mph56.3 kmh 30.00 in1015.9 mb 0.00 in0.0 mm 0.00 in0.0 mm 0.00 in0.0 mm
09:24 AM 46.9°F8.3°C 45.3°F7.4°C 94% 23.0 mph SSE37.0 kmh SSE 35.0 mph56.3 kmh 30.00 in1015.9 mb 0.00 in0.0 mm 0.00 in0.0 mm 0.00 in0.0 mm
09:27 AM 46.9°F8.3°C 45.3°F7.4°C 94% 23.0 mph SSE37.0 kmh SSE 35.0 mph56.3 kmh 30.00 in1015.9 mb 0.00 in0.0 mm 0.00 in0.0 mm 0.00 in0.0 mm
09:30 AM 46.9°F8.3°C 45.3°F7.4°C 94% 24.0 mph SSE38.6 kmh SSE 35.0 mph56.3 kmh 30.00 in1015.9 mb 0.00 in0.0 mm 0.00 in0.0 mm 0.00 in0.0 mm
09:33 AM 46.9°F8.3°C 45.3°F7.4°C 94% 24.0 mph SSE38.6 kmh SSE 35.0 mph56.3 kmh 30.00 in1015.9 mb 0.00 in0.0 mm 0.00 in0.0 mm 0.00 in0.0 mm
09:36 AM 46.9°F8.3°C 45.3°F7.4°C 94% 23.0 mph SSE37.0 kmh SSE 35.0 mph56.3 kmh 30.00 in1015.9 mb 0.00 in0.0 mm 0.00 in0.0 mm 0.00 in0.0 mm
09:39 AM 46.9°F8.3°C 45.3°F7.4°C 94% 22.0 mph SSE35.4 kmh SSE 33.0 mph53.1 kmh 30.00 in1015.9 mb 0.00 in0.0 mm 0.00 in0.0 mm 0.00 in0.0 mm
09:42 AM 46.9°F8.3°C 45.3°F7.4°C 94% 22.0 mph SSE35.4 kmh SSE 35.0 mph56.3 kmh 30.00 in1015.9 mb 0.00 in0.0 mm 0.00 in0.0 mm 0.00 in0.0 mm
09:45 AM 46.9°F8.3°C 45.3°F7.4°C 94% 21.0 mph SSE33.8 kmh SSE 35.0 mph56.3 kmh 30.00 in1015.9 mb 0.00 in0.0 mm 0.00 in0.0 mm 0.00 in0.0 mm
09:48 AM 46.9°F8.3°C 45.3°F7.4°C 94% 21.0 mph SSE33.8 kmh SSE 35.0 mph56.3 kmh 30.00 in1015.9 mb 0.00 in0.0 mm 0.00 in0.0 mm 0.00 in0.0 mm
09:51 AM 46.9°F8.3°C 45.3°F7.4°C 94% 21.0 mph SSE33.8 kmh SSE 33.0 mph53.1 kmh 30.00 in1015.9 mb 0.00 in0.0 mm 0.00 in0.0 mm 0.00 in0.0 mm
09:54 AM 46.9°F8.3°C 45.3°F7.4°C 94% 21.0 mph SSE33.8 kmh SSE 30.0 mph48.3 kmh 30.00 in1015.9 mb 0.00 in0.0 mm 0.00 in0.0 mm 0.00 in0.0 mm
09:57 AM 46.9°F8.3°C 45.3°F7.4°C 94% 22.0 mph SSE35.4 kmh SSE 32.0 mph51.5 kmh 29.99 in1015.6 mb 0.00 in0.0 mm 0.00 in0.0 mm 0.00 in0.0 mm
10:00 AM 46.9°F8.3°C 45.3°F7.4°C 94% 23.0 mph SSE37.0 kmh SSE 32.0 mph51.5 kmh 29.99 in1015.6 mb 0.00 in0.0 mm 0.00 in0.0 mm 0.00 in0.0 mm
10:03 AM 46.9°F8.3°C 45.3°F7.4°C 94% 23.0 mph SSE37.0 kmh SSE 36.0 mph57.9 kmh 29.99 in1015.6 mb 0.00 in0.0 mm 0.00 in0.0 mm 0.00 in0.0 mm
10:06 AM 46.9°F8.3°C 45.3°F7.4°C 94% 23.0 mph SSE37.0 kmh SSE 36.0 mph57.9 kmh 29.99 in1015.6 mb 0.00 in0.0 mm 0.00 in0.0 mm 0.00 in0.0 mm
10:09 AM 46.9°F8.3°C 45.3°F7.4°C 94% 25.0 mph SSE40.2 kmh SSE 36.0 mph57.9 kmh 29.99 in1015.6 mb 0.00 in0.0 mm 0.00 in0.0 mm 0.00 in0.0 mm
10:12 AM 46.9°F8.3°C 45.3°F7.4°C 94% 25.0 mph SSE40.2 kmh SSE 35.0 mph56.3 kmh 29.99 in1015.6 mb 0.00 in0.0 mm 0.00 in0.0 mm 0.00 in0.0 mm
10:15 AM 46.9°F8.3°C 45.3°F7.4°C 94% 25.0 mph SSE40.2 kmh SSE 35.0 mph56.3 kmh 29.99 in1015.6 mb 0.00 in0.0 mm 0.00 in0.0 mm 0.00 in0.0 mm
10:18 AM 46.9°F8.3°C 45.3°F7.4°C 94% 25.0 mph SSE40.2 kmh SSE 35.0 mph56.3 kmh 29.99 in1015.6 mb 0.00 in0.0 mm 0.00 in0.0 mm 0.00 in0.0 mm
10:21 AM 46.9°F8.3°C 45.3°F7.4°C 94% 24.0 mph SSE38.6 kmh SSE 35.0 mph56.3 kmh 29.99 in1015.6 mb 0.00 in0.0 mm 0.00 in0.0 mm 0.00 in0.0 mm
10:24 AM 46.9°F8.3°C 45.3°F7.4°C 94% 24.0 mph SSE38.6 kmh SSE 34.0 mph54.7 kmh 29.99 in1015.6 mb 0.00 in0.0 mm 0.00 in0.0 mm 0.00 in0.0 mm
10:27 AM 46.9°F8.3°C 45.3°F7.4°C 94% 25.0 mph SSE40.2 kmh SSE 35.0 mph56.3 kmh 29.99 in1015.6 mb 0.00 in0.0 mm 0.00 in0.0 mm 0.00 in0.0 mm
10:30 AM 46.9°F8.3°C 45.3°F7.4°C 94% 25.0 mph SSE40.2 kmh SSE 35.0 mph56.3 kmh 29.99 in1015.6 mb 0.00 in0.0 mm 0.00 in0.0 mm 0.00 in0.0 mm
10:33 AM 46.9°F8.3°C 45.3°F7.4°C 94% 25.0 mph SSE40.2 kmh SSE 35.0 mph56.3 kmh 29.99 in1015.6 mb 0.00 in0.0 mm 0.00 in0.0 mm 0.00 in0.0 mm
10:36 AM 46.9°F8.3°C 45.3°F7.4°C 94% 25.0 mph SSE40.2 kmh SSE 36.0 mph57.9 kmh 30.00 in1015.9 mb 0.00 in0.0 mm 0.00 in0.0 mm 0.00 in0.0 mm
10:39 AM 46.9°F8.3°C 45.3°F7.4°C 94% 24.0 mph SSE38.6 kmh SSE 38.0 mph61.2 kmh 29.99 in1015.6 mb 0.00 in0.0 mm 0.00 in0.0 mm 0.00 in0.0 mm
10:42 AM 46.9°F8.3°C 45.3°F7.4°C 94% 24.0 mph SSE38.6 kmh SSE 38.0 mph61.2 kmh 29.99 in1015.6 mb 0.00 in0.0 mm 0.00 in0.0 mm 0.00 in0.0 mm
10:45 AM 46.9°F8.3°C 45.3°F7.4°C 94% 24.0 mph SSE38.6 kmh SSE 38.0 mph61.2 kmh 29.99 in1015.6 mb 0.00 in0.0 mm 0.00 in0.0 mm 0.00 in0.0 mm
10:48 AM 46.9°F8.3°C 45.3°F7.4°C 94% 23.0 mph SSE37.0 kmh SSE 36.0 mph57.9 kmh 29.99 in1015.6 mb 0.00 in0.0 mm 0.00 in0.0 mm 0.00 in0.0 mm
10:51 AM 46.9°F8.3°C 45.3°F7.4°C 94% 22.0 mph SSE35.4 kmh SSE 35.0 mph56.3 kmh 29.99 in1015.6 mb 0.00 in0.0 mm 0.00 in0.0 mm 0.00 in0.0 mm
10:54 AM 46.9°F8.3°C 45.3°F7.4°C 94% 22.0 mph SSE35.4 kmh SSE 37.0 mph59.5 kmh 29.99 in1015.6 mb 0.00 in0.0 mm 0.00 in0.0 mm 0.00 in0.0 mm
10:57 AM 46.9°F8.3°C 45.3°F7.4°C 94% 23.0 mph SSE37.0 kmh SSE 37.0 mph59.5 kmh 29.99 in1015.6 mb 0.00 in0.0 mm 0.00 in0.0 mm 0.00 in0.0 mm
11:00 AM 46.9°F8.3°C 45.3°F7.4°C 94% 24.0 mph SSE38.6 kmh SSE 37.0 mph59.5 kmh 29.99 in1015.6 mb 0.00 in0.0 mm 0.00 in0.0 mm 0.00 in0.0 mm
11:03 AM 46.9°F8.3°C 45.3°F7.4°C 94% 24.0 mph SSE38.6 kmh SSE 37.0 mph59.5 kmh 29.98 in1015.2 mb 0.00 in0.0 mm 0.00 in0.0 mm 0.00 in0.0 mm
11:06 AM 46.9°F8.3°C 45.3°F7.4°C 94% 24.0 mph SSE38.6 kmh SSE 35.0 mph56.3 kmh 29.98 in1015.2 mb 0.00 in0.0 mm 0.00 in0.0 mm 0.00 in0.0 mm
11:09 AM 46.9°F8.3°C 45.3°F7.4°C 94% 24.0 mph SSE38.6 kmh SSE 35.0 mph56.3 kmh 29.98 in1015.2 mb 0.00 in0.0 mm 0.00 in0.0 mm 0.00 in0.0 mm
11:12 AM 46.9°F8.3°C 45.3°F7.4°C 94% 23.0 mph SSE37.0 kmh SSE 32.0 mph51.5 kmh 29.98 in1015.2 mb 0.00 in0.0 mm 0.00 in0.0 mm 0.00 in0.0 mm
11:15 AM 46.9°F8.3°C 45.3°F7.4°C 94% 23.0 mph SSE37.0 kmh SSE 34.0 mph54.7 kmh 29.98 in1015.2 mb 0.00 in0.0 mm 0.00 in0.0 mm 0.00 in0.0 mm
11:18 AM 46.9°F8.3°C 45.3°F7.4°C 94% 23.0 mph SSE37.0 kmh SSE 34.0 mph54.7 kmh 29.98 in1015.2 mb 0.00 in0.0 mm 0.00 in0.0 mm 0.00 in0.0 mm
11:21 AM 46.9°F8.3°C 45.3°F7.4°C 94% 22.0 mph SSE35.4 kmh SSE 34.0 mph54.7 kmh 29.98 in1015.2 mb 0.00 in0.0 mm 0.00 in0.0 mm 0.00 in0.0 mm
11:24 AM 46.9°F8.3°C 45.3°F7.4°C 94% 21.0 mph SSE33.8 kmh SSE 33.0 mph53.1 kmh 29.98 in1015.2 mb 0.00 in0.0 mm 0.00 in0.0 mm 0.00 in0.0 mm
11:27 AM 46.9°F8.3°C 45.3°F7.4°C 94% 21.0 mph SSE33.8 kmh SSE 33.0 mph53.1 kmh 29.98 in1015.2 mb 0.00 in0.0 mm 0.00 in0.0 mm 0.00 in0.0 mm
11:30 AM 46.9°F8.3°C 45.3°F7.4°C 94% 21.0 mph SSE33.8 kmh SSE 31.0 mph49.9 kmh 29.98 in1015.2 mb 0.00 in0.0 mm 0.00 in0.0 mm 0.00 in0.0 mm
11:33 AM 46.9°F8.3°C 45.3°F7.4°C 94% 21.0 mph SSE33.8 kmh SSE 32.0 mph51.5 kmh 29.98 in1015.2 mb 0.00 in0.0 mm 0.00 in0.0 mm 0.00 in0.0 mm
11:36 AM 46.9°F8.3°C 45.3°F7.4°C 94% 21.0 mph SSE33.8 kmh SSE 32.0 mph51.5 kmh 29.98 in1015.2 mb 0.00 in0.0 mm 0.00 in0.0 mm 0.00 in0.0 mm
11:39 AM 46.9°F8.3°C 45.3°F7.4°C 94% 22.0 mph SSE35.4 kmh SSE 32.0 mph51.5 kmh 29.98 in1015.2 mb 0.00 in0.0 mm 0.00 in0.0 mm 0.00 in0.0 mm
11:42 AM 46.9°F8.3°C 45.3°F7.4°C 94% 22.0 mph SSE35.4 kmh SSE 32.0 mph51.5 kmh 29.98 in1015.2 mb 0.00 in0.0 mm 0.00 in0.0 mm 0.00 in0.0 mm
11:45 AM 46.9°F8.3°C 45.3°F7.4°C 94% 21.0 mph SSE33.8 kmh SSE 31.0 mph49.9 kmh 29.98 in1015.2 mb 0.00 in0.0 mm 0.00 in0.0 mm 0.00 in0.0 mm
11:48 AM 46.9°F8.3°C 45.3°F7.4°C 94% 21.0 mph SSE33.8 kmh SSE 31.0 mph49.9 kmh 29.98 in1015.2 mb 0.00 in0.0 mm 0.00 in0.0 mm 0.00 in0.0 mm
11:51 AM 46.9°F8.3°C 45.3°F7.4°C 94% 20.0 mph SSE32.2 kmh SSE 30.0 mph48.3 kmh 29.97 in1014.9 mb 0.00 in0.0 mm 0.00 in0.0 mm 0.00 in0.0 mm
11:54 AM 46.9°F8.3°C 45.3°F7.4°C 94% 19.0 mph SSE30.6 kmh SSE 29.0 mph46.7 kmh 29.97 in1014.9 mb 0.00 in0.0 mm 0.00 in0.0 mm 0.00 in0.0 mm
11:57 AM 46.9°F8.3°C 45.3°F7.4°C 94% 19.0 mph SSE30.6 kmh SSE 28.0 mph45.1 kmh 29.97 in1014.9 mb 0.00 in0.0 mm 0.00 in0.0 mm 0.00 in0.0 mm
12:00 PM 46.9°F8.3°C 45.3°F7.4°C 94% 19.0 mph SSE30.6 kmh SSE 29.0 mph46.7 kmh 29.97 in1014.9 mb 0.00 in0.0 mm 0.00 in0.0 mm 0.00 in0.0 mm
12:03 PM 46.9°F8.3°C 45.3°F7.4°C 94% 20.0 mph SSE32.2 kmh SSE 29.0 mph46.7 kmh 29.96 in1014.6 mb 0.00 in0.0 mm 0.00 in0.0 mm 0.00 in0.0 mm
12:06 PM 46.9°F8.3°C 45.3°F7.4°C 94% 21.0 mph SSE33.8 kmh SSE 29.0 mph46.7 kmh 29.96 in1014.6 mb 0.00 in0.0 mm 0.00 in0.0 mm 0.00 in0.0 mm
12:09 PM 46.9°F8.3°C 45.3°F7.4°C 94% 21.0 mph SSE33.8 kmh SSE 32.0 mph51.5 kmh 29.96 in1014.6 mb 0.00 in0.0 mm 0.00 in0.0 mm 0.00 in0.0 mm
12:12 PM 46.9°F8.3°C 45.3°F7.4°C 94% 21.0 mph SSE33.8 kmh SSE 36.0 mph57.9 kmh 29.95 in1014.2 mb 0.00 in0.0 mm 0.00 in0.0 mm 0.00 in0.0 mm
12:15 PM 46.9°F8.3°C 45.3°F7.4°C 94% 22.0 mph SSE35.4 kmh SSE 36.0 mph57.9 kmh 29.95 in1014.2 mb 0.00 in0.0 mm 0.00 in0.0 mm 0.00 in0.0 mm
12:18 PM 46.9°F8.3°C 45.3°F7.4°C 94% 23.0 mph SSE37.0 kmh SSE 36.0 mph57.9 kmh 29.95 in1014.2 mb 0.00 in0.0 mm 0.00 in0.0 mm 0.00 in0.0 mm
12:21 PM 46.9°F8.3°C 45.3°F7.4°C 94% 24.0 mph SSE38.6 kmh SSE 36.0 mph57.9 kmh 29.95 in1014.2 mb 0.00 in0.0 mm 0.00 in0.0 mm 0.00 in0.0 mm
12:24 PM 46.9°F8.3°C 45.3°F7.4°C 94% 25.0 mph SSE40.2 kmh SSE 35.0 mph56.3 kmh 29.95 in1014.2 mb 0.00 in0.0 mm 0.00 in0.0 mm 0.00 in0.0 mm
12:27 PM 46.9°F8.3°C 45.3°F7.4°C 94% 24.0 mph SSE38.6 kmh SSE 35.0 mph56.3 kmh 29.95 in1014.2 mb 0.00 in0.0 mm 0.00 in0.0 mm 0.00 in0.0 mm
12:30 PM 46.9°F8.3°C 45.3°F7.4°C 94% 25.0 mph SSE40.2 kmh SSE 38.0 mph61.2 kmh 29.95 in1014.2 mb 0.00 in0.0 mm 0.00 in0.0 mm 0.00 in0.0 mm
12:33 PM 46.9°F8.3°C 45.3°F7.4°C 94% 25.0 mph SSE40.2 kmh SSE 38.0 mph61.2 kmh 29.94 in1013.9 mb 0.00 in0.0 mm 0.00 in0.0 mm 0.00 in0.0 mm
12:36 PM 46.9°F8.3°C 45.3°F7.4°C 94% 25.0 mph SSE40.2 kmh SSE 38.0 mph61.2 kmh 29.94 in1013.9 mb 0.00 in0.0 mm 0.00 in0.0 mm 0.00 in0.0 mm
12:39 PM 46.9°F8.3°C 45.3°F7.4°C 94% 24.0 mph SSE38.6 kmh SSE 36.0 mph57.9 kmh 29.94 in1013.9 mb 0.00 in0.0 mm 0.00 in0.0 mm 0.00 in0.0 mm
12:42 PM 46.9°F8.3°C 45.3°F7.4°C 94% 24.0 mph SSE38.6 kmh SSE 36.0 mph57.9 kmh 29.94 in1013.9 mb 0.00 in0.0 mm 0.00 in0.0 mm 0.00 in0.0 mm
12:45 PM 46.9°F8.3°C 45.3°F7.4°C 94% 23.0 mph SSE37.0 kmh SSE 35.0 mph56.3 kmh 29.94 in1013.9 mb 0.00 in0.0 mm 0.00 in0.0 mm 0.00 in0.0 mm
12:48 PM 46.9°F8.3°C 45.3°F7.4°C 94% 23.0 mph SSE37.0 kmh SSE 35.0 mph56.3 kmh 29.93 in1013.5 mb 0.00 in0.0 mm 0.00 in0.0 mm 0.00 in0.0 mm
12:51 PM 46.9°F8.3°C 45.3°F7.4°C 94% 24.0 mph SSE38.6 kmh SSE 35.0 mph56.3 kmh 29.93 in1013.5 mb 0.00 in0.0 mm 0.00 in0.0 mm 0.00 in0.0 mm
12:54 PM 46.9°F8.3°C 45.3°F7.4°C 94% 24.0 mph SSE38.6 kmh SSE 35.0 mph56.3 kmh 29.93 in1013.5 mb 0.00 in0.0 mm 0.00 in0.0 mm 0.00 in0.0 mm
12:57 PM 46.9°F8.3°C 45.3°F7.4°C 94% 25.0 mph SSE40.2 kmh SSE 35.0 mph56.3 kmh 29.93 in1013.5 mb 0.00 in0.0 mm 0.00 in0.0 mm 0.00 in0.0 mm
01:00 PM 46.9°F8.3°C 45.3°F7.4°C 94% 24.0 mph SSE38.6 kmh SSE 34.0 mph54.7 kmh 29.92 in1013.2 mb 0.00 in0.0 mm 0.00 in0.0 mm 0.00 in0.0 mm
01:03 PM 46.9°F8.3°C 45.3°F7.4°C 94% 25.0 mph SSE40.2 kmh SSE 36.0 mph57.9 kmh 29.92 in1013.2 mb 0.00 in0.0 mm 0.00 in0.0 mm 0.00 in0.0 mm
01:06 PM 46.9°F8.3°C 45.3°F7.4°C 94% 24.0 mph SSE38.6 kmh SSE 36.0 mph57.9 kmh 29.92 in1013.2 mb 0.00 in0.0 mm 0.00 in0.0 mm 0.00 in0.0 mm
01:09 PM 46.9°F8.3°C 45.3°F7.4°C 94% 24.0 mph SSE38.6 kmh SSE 36.0 mph57.9 kmh 29.92 in1013.2 mb 0.00 in0.0 mm 0.00 in0.0 mm 0.00 in0.0 mm
01:12 PM 46.9°F8.3°C 45.3°F7.4°C 94% 24.0 mph SSE38.6 kmh SSE 37.0 mph59.5 kmh 29.92 in1013.2 mb 0.00 in0.0 mm 0.00 in0.0 mm 0.00 in0.0 mm
01:15 PM 46.9°F8.3°C 45.3°F7.4°C 94% 24.0 mph SSE38.6 kmh SSE 37.0 mph59.5 kmh 29.92 in1013.2 mb 0.00 in0.0 mm 0.00 in0.0 mm 0.00 in0.0 mm
01:18 PM 46.9°F8.3°C 45.3°F7.4°C 94% 25.0 mph SSE40.2 kmh SSE 37.0 mph59.5 kmh 29.92 in1013.2 mb 0.00 in0.0 mm 0.00 in0.0 mm 0.00 in0.0 mm
01:21 PM 46.9°F8.3°C 45.3°F7.4°C 94% 25.0 mph SSE40.2 kmh SSE 37.0 mph59.5 kmh 29.91 in1012.9 mb 0.00 in0.0 mm 0.00 in0.0 mm 0.00 in0.0 mm
01:24 PM 46.9°F8.3°C 45.3°F7.4°C 94% 25.0 mph SSE40.2 kmh SSE 37.0 mph59.5 kmh 29.91 in1012.9 mb 0.00 in0.0 mm 0.00 in0.0 mm 0.00 in0.0 mm
01:27 PM 46.9°F8.3°C 45.3°F7.4°C 94% 25.0 mph SSE40.2 kmh SSE 38.0 mph61.2 kmh 29.91 in1012.9 mb 0.00 in0.0 mm 0.00 in0.0 mm 0.00 in0.0 mm
01:30 PM 46.9°F8.3°C 45.3°F7.4°C 94% 24.0 mph SSE38.6 kmh SSE 38.0 mph61.2 kmh 29.91 in1012.9 mb 0.00 in0.0 mm 0.00 in0.0 mm 0.00 in0.0 mm
01:33 PM 46.9°F8.3°C 45.3°F7.4°C 94% 25.0 mph SSE40.2 kmh SSE 38.0 mph61.2 kmh 29.91 in1012.9 mb 0.00 in0.0 mm 0.00 in0.0 mm 0.00 in0.0 mm
01:36 PM 46.9°F8.3°C 45.3°F7.4°C 94% 25.0 mph SSE40.2 kmh SSE 38.0 mph61.2 kmh 29.91 in1012.9 mb 0.00 in0.0 mm 0.00 in0.0 mm 0.00 in0.0 mm
01:39 PM 46.9°F8.3°C 45.3°F7.4°C 94% 25.0 mph SSE40.2 kmh SSE 42.0 mph67.6 kmh 29.90 in1012.5 mb 0.00 in0.0 mm 0.00 in0.0 mm 0.00 in0.0 mm
01:42 PM 46.9°F8.3°C 45.3°F7.4°C 94% 26.0 mph SSE41.8 kmh SSE 42.0 mph67.6 kmh 29.90 in1012.5 mb 0.00 in0.0 mm 0.00 in0.0 mm 0.00 in0.0 mm
01:45 PM 46.9°F8.3°C 45.3°F7.4°C 94% 27.0 mph SSE43.5 kmh SSE 43.0 mph69.2 kmh 29.89 in1012.2 mb 0.00 in0.0 mm 0.00 in0.0 mm 0.00 in0.0 mm
01:48 PM 46.9°F8.3°C 45.3°F7.4°C 94% 27.0 mph SSE43.5 kmh SSE 43.0 mph69.2 kmh 29.89 in1012.2 mb 0.00 in0.0 mm 0.00 in0.0 mm 0.00 in0.0 mm
01:51 PM 46.9°F8.3°C 45.3°F7.4°C 94% 26.0 mph SSE41.8 kmh SSE 43.0 mph69.2 kmh 29.89 in1012.2 mb 0.00 in0.0 mm 0.00 in0.0 mm 0.00 in0.0 mm
01:54 PM 46.9°F8.3°C 45.3°F7.4°C 94% 26.0 mph SSE41.8 kmh SSE 40.0 mph64.4 kmh 29.89 in1012.2 mb 0.00 in0.0 mm 0.00 in0.0 mm 0.00 in0.0 mm
01:57 PM 46.9°F8.3°C 45.3°F7.4°C 94% 26.0 mph SSE41.8 kmh SSE 40.0 mph64.4 kmh 29.89 in1012.2 mb 0.00 in0.0 mm 0.00 in0.0 mm 0.00 in0.0 mm
02:00 PM 46.9°F8.3°C 45.3°F7.4°C 94% 26.0 mph SSE41.8 kmh SSE 40.0 mph64.4 kmh 29.88 in1011.9 mb 0.00 in0.0 mm 0.00 in0.0 mm 0.00 in0.0 mm
02:03 PM 46.9°F8.3°C 45.3°F7.4°C 94% 27.0 mph SSE43.5 kmh SSE 40.0 mph64.4 kmh 29.88 in1011.9 mb 0.00 in0.0 mm 0.00 in0.0 mm 0.00 in0.0 mm
02:06 PM 46.9°F8.3°C 45.3°F7.4°C 94% 26.0 mph SSE41.8 kmh SSE 40.0 mph64.4 kmh 29.88 in1011.9 mb 0.00 in0.0 mm 0.00 in0.0 mm 0.00 in0.0 mm
02:09 PM 46.9°F8.3°C 45.3°F7.4°C 94% 27.0 mph SSE43.5 kmh SSE 41.0 mph66.0 kmh 29.87 in1011.5 mb 0.00 in0.0 mm 0.00 in0.0 mm 0.00 in0.0 mm
02:12 PM 46.9°F8.3°C 45.3°F7.4°C 94% 26.0 mph SSE41.8 kmh SSE 41.0 mph66.0 kmh 29.87 in1011.5 mb 0.00 in0.0 mm 0.00 in0.0 mm 0.00 in0.0 mm
02:15 PM 46.9°F8.3°C 45.3°F7.4°C 94% 26.0 mph SSE41.8 kmh SSE 41.0 mph66.0 kmh 29.88 in1011.9 mb 0.00 in0.0 mm 0.00 in0.0 mm 0.00 in0.0 mm
02:18 PM 46.9°F8.3°C 45.3°F7.4°C 94% 26.0 mph SSE41.8 kmh SSE 41.0 mph66.0 kmh 29.87 in1011.5 mb 0.00 in0.0 mm 0.00 in0.0 mm 0.00 in0.0 mm
02:21 PM 46.9°F8.3°C 45.3°F7.4°C 94% 27.0 mph SSE43.5 kmh SSE 39.0 mph62.8 kmh 29.87 in1011.5 mb 0.00 in0.0 mm 0.00 in0.0 mm 0.00 in0.0 mm
02:24 PM 46.9°F8.3°C 45.3°F7.4°C 94% 27.0 mph SSE43.5 kmh SSE 41.0 mph66.0 kmh 29.87 in1011.5 mb 0.00 in0.0 mm 0.00 in0.0 mm 0.00 in0.0 mm
02:27 PM 46.9°F8.3°C 45.3°F7.4°C 94% 26.0 mph SSE41.8 kmh SSE 41.0 mph66.0 kmh 29.87 in1011.5 mb 0.00 in0.0 mm 0.00 in0.0 mm 0.00 in0.0 mm
02:30 PM 46.9°F8.3°C 45.3°F7.4°C 94% 26.0 mph SSE41.8 kmh SSE 41.0 mph66.0 kmh 29.87 in1011.5 mb 0.00 in0.0 mm 0.00 in0.0 mm 0.00 in0.0 mm
02:33 PM 46.9°F8.3°C 45.3°F7.4°C 94% 26.0 mph SSE41.8 kmh SSE 40.0 mph64.4 kmh 29.86 in1011.2 mb 0.00 in0.0 mm 0.00 in0.0 mm 0.00 in0.0 mm
02:36 PM 46.9°F8.3°C 45.3°F7.4°C 94% 26.0 mph SSE41.8 kmh SSE 40.0 mph64.4 kmh 29.87 in1011.5 mb 0.00 in0.0 mm 0.00 in0.0 mm 0.00 in0.0 mm
02:39 PM 46.9°F8.3°C 45.3°F7.4°C 94% 27.0 mph SSE43.5 kmh SSE 39.0 mph62.8 kmh 29.86 in1011.2 mb 0.00 in0.0 mm 0.00 in0.0 mm 0.00 in0.0 mm
02:42 PM 46.9°F8.3°C 45.3°F7.4°C 94% 27.0 mph SSE43.5 kmh SSE 39.0 mph62.8 kmh 29.86 in1011.2 mb 0.00 in0.0 mm 0.00 in0.0 mm 0.00 in0.0 mm
02:45 PM 46.9°F8.3°C 45.3°F7.4°C 94% 28.0 mph SSE45.1 kmh SSE 40.0 mph64.4 kmh 29.86 in1011.2 mb 0.00 in0.0 mm 0.00 in0.0 mm 0.00 in0.0 mm
02:48 PM 46.9°F8.3°C 45.3°F7.4°C 94% 26.0 mph SSE41.8 kmh SSE 40.0 mph64.4 kmh 29.86 in1011.2 mb 0.00 in0.0 mm 0.00 in0.0 mm 0.00 in0.0 mm
02:51 PM 46.9°F8.3°C 45.3°F7.4°C 94% 26.0 mph SSE41.8 kmh SSE 40.0 mph64.4 kmh 29.86 in1011.2 mb 0.00 in0.0 mm 0.00 in0.0 mm 0.00 in0.0 mm
02:54 PM 46.9°F8.3°C 45.3°F7.4°C 94% 27.0 mph SSE43.5 kmh SSE 40.0 mph64.4 kmh 29.86 in1011.2 mb 0.00 in0.0 mm 0.00 in0.0 mm 0.00 in0.0 mm
02:57 PM 46.9°F8.3°C 45.3°F7.4°C 94% 27.0 mph SSE43.5 kmh SSE 38.0 mph61.2 kmh 29.86 in1011.2 mb 0.00 in0.0 mm 0.00 in0.0 mm 0.00 in0.0 mm
03:00 PM 46.9°F8.3°C 45.3°F7.4°C 94% 26.0 mph SSE41.8 kmh SSE 38.0 mph61.2 kmh 29.86 in1011.2 mb 0.00 in0.0 mm 0.00 in0.0 mm 0.00 in0.0 mm
03:03 PM 46.9°F8.3°C 45.3°F7.4°C 94% 25.0 mph SSE40.2 kmh SSE 38.0 mph61.2 kmh 29.86 in1011.2 mb 0.00 in0.0 mm 0.00 in0.0 mm 0.00 in0.0 mm
03:06 PM 46.9°F8.3°C 45.3°F7.4°C 94% 24.0 mph SSE38.6 kmh SSE 38.0 mph61.2 kmh 29.86 in1011.2 mb 0.00 in0.0 mm 0.00 in0.0 mm 0.00 in0.0 mm
03:09 PM 46.9°F8.3°C 45.3°F7.4°C 94% 24.0 mph SSE38.6 kmh SSE 41.0 mph66.0 kmh 29.85 in1010.8 mb 0.00 in0.0 mm 0.00 in0.0 mm 0.00 in0.0 mm
03:12 PM 46.9°F8.3°C 45.3°F7.4°C 94% 26.0 mph SSE41.8 kmh SSE 41.0 mph66.0 kmh 29.85 in1010.8 mb 0.00 in0.0 mm 0.00 in0.0 mm 0.00 in0.0 mm
03:15 PM 46.9°F8.3°C 45.3°F7.4°C 94% 26.0 mph SSE41.8 kmh SSE 41.0 mph66.0 kmh 29.85 in1010.8 mb 0.00 in0.0 mm 0.00 in0.0 mm 0.00 in0.0 mm
03:18 PM 46.9°F8.3°C 45.3°F7.4°C 94% 27.0 mph SSE43.5 kmh SSE 41.0 mph66.0 kmh 29.85 in1010.8 mb 0.00 in0.0 mm 0.00 in0.0 mm 0.00 in0.0 mm
03:21 PM 46.9°F8.3°C 45.3°F7.4°C 94% 26.0 mph SSE41.8 kmh SSE 41.0 mph66.0 kmh 29.85 in1010.8 mb 0.00 in0.0 mm 0.00 in0.0 mm 0.00 in0.0 mm
03:24 PM 46.9°F8.3°C 45.3°F7.4°C 94% 26.0 mph SSE41.8 kmh SSE 41.0 mph66.0 kmh 29.85 in1010.8 mb 0.00 in0.0 mm 0.00 in0.0 mm 0.00 in0.0 mm
03:27 PM 46.9°F8.3°C 45.3°F7.4°C 94% 25.0 mph SSE40.2 kmh SSE 40.0 mph64.4 kmh 29.85 in1010.8 mb 0.00 in0.0 mm 0.00 in0.0 mm 0.00 in0.0 mm
03:30 PM 46.9°F8.3°C 45.3°F7.4°C 94% 25.0 mph SSE40.2 kmh SSE 40.0 mph64.4 kmh 29.84 in1010.5 mb 0.00 in0.0 mm 0.00 in0.0 mm 0.00 in0.0 mm
03:33 PM 46.9°F8.3°C 45.3°F7.4°C 94% 25.0 mph SSE40.2 kmh SSE 40.0 mph64.4 kmh 29.84 in1010.5 mb 0.00 in0.0 mm 0.00 in0.0 mm 0.00 in0.0 mm
03:36 PM 46.9°F8.3°C 45.3°F7.4°C 94% 25.0 mph SSE40.2 kmh SSE 37.0 mph59.5 kmh 29.84 in1010.5 mb 0.00 in0.0 mm 0.00 in0.0 mm 0.00 in0.0 mm
03:39 PM 46.9°F8.3°C 45.3°F7.4°C 94% 26.0 mph SSE41.8 kmh SSE 37.0 mph59.5 kmh 29.84 in1010.5 mb 0.00 in0.0 mm 0.00 in0.0 mm 0.00 in0.0 mm
03:42 PM 46.9°F8.3°C 45.3°F7.4°C 94% 26.0 mph SSE41.8 kmh SSE 39.0 mph62.8 kmh 29.84 in1010.5 mb 0.00 in0.0 mm 0.00 in0.0 mm 0.00 in0.0 mm
03:45 PM 46.9°F8.3°C 45.3°F7.4°C 94% 27.0 mph SSE43.5 kmh SSE 39.0 mph62.8 kmh 29.84 in1010.5 mb 0.00 in0.0 mm 0.00 in0.0 mm 0.00 in0.0 mm
03:48 PM 46.9°F8.3°C 45.3°F7.4°C 94% 27.0 mph SSE43.5 kmh SSE 41.0 mph66.0 kmh 29.84 in1010.5 mb 0.00 in0.0 mm 0.00 in0.0 mm 0.00 in0.0 mm
03:51 PM 46.9°F8.3°C 45.3°F7.4°C 94% 28.0 mph SSE45.1 kmh SSE 41.0 mph66.0 kmh 29.84 in1010.5 mb 0.00 in0.0 mm 0.00 in0.0 mm 0.00 in0.0 mm
03:54 PM 46.9°F8.3°C 45.3°F7.4°C 94% 27.0 mph SSE43.5 kmh SSE 41.0 mph66.0 kmh 29.84 in1010.5 mb 0.00 in0.0 mm 0.00 in0.0 mm 0.00 in0.0 mm
03:57 PM 46.9°F8.3°C 45.3°F7.4°C 94% 27.0 mph SSE43.5 kmh SSE 38.0 mph61.2 kmh 29.84 in1010.5 mb 0.00 in0.0 mm 0.00 in0.0 mm 0.00 in0.0 mm
04:00 PM 46.9°F8.3°C 45.3°F7.4°C 94% 26.0 mph SSE41.8 kmh SSE 37.0 mph59.5 kmh 29.84 in1010.5 mb 0.00 in0.0 mm 0.00 in0.0 mm 0.00 in0.0 mm
04:03 PM 46.9°F8.3°C 45.3°F7.4°C 94% 27.0 mph SSE43.5 kmh SSE 41.0 mph66.0 kmh 29.84 in1010.5 mb 0.00 in0.0 mm 0.00 in0.0 mm 0.00 in0.0 mm
04:06 PM 46.9°F8.3°C 45.3°F7.4°C 94% 28.0 mph SSE45.1 kmh SSE 41.0 mph66.0 kmh 29.83 in1010.2 mb 0.00 in0.0 mm 0.00 in0.0 mm 0.00 in0.0 mm
04:09 PM 46.9°F8.3°C 45.3°F7.4°C 94% 28.0 mph SSE45.1 kmh SSE 41.0 mph66.0 kmh 29.84 in1010.5 mb 0.00 in0.0 mm 0.00 in0.0 mm 0.00 in0.0 mm
04:12 PM 46.9°F8.3°C 45.3°F7.4°C 94% 26.0 mph SSE41.8 kmh SSE 41.0 mph66.0 kmh 29.83 in1010.2 mb 0.00 in0.0 mm 0.00 in0.0 mm 0.00 in0.0 mm
04:15 PM 46.9°F8.3°C 45.3°F7.4°C 94% 27.0 mph SSE43.5 kmh SSE 41.0 mph66.0 kmh 29.83 in1010.2 mb 0.00 in0.0 mm 0.00 in0.0 mm 0.00 in0.0 mm
04:18 PM 46.9°F8.3°C 45.3°F7.4°C 94% 26.0 mph SSE41.8 kmh SSE 41.0 mph66.0 kmh 29.83 in1010.2 mb 0.00 in0.0 mm 0.00 in0.0 mm 0.00 in0.0 mm
04:21 PM 46.9°F8.3°C 45.3°F7.4°C 94% 26.0 mph SSE41.8 kmh SSE 41.0 mph66.0 kmh 29.83 in1010.2 mb 0.00 in0.0 mm 0.00 in0.0 mm 0.00 in0.0 mm
04:24 PM 46.9°F8.3°C 45.3°F7.4°C 94% 26.0 mph SSE41.8 kmh SSE 38.0 mph61.2 kmh 29.84 in1010.5 mb 0.00 in0.0 mm 0.00 in0.0 mm 0.00 in0.0 mm
04:27 PM 46.9°F8.3°C 45.3°F7.4°C 94% 26.0 mph S41.8 kmh S 40.0 mph64.4 kmh 29.84 in1010.5 mb 0.00 in0.0 mm 0.00 in0.0 mm 0.00 in0.0 mm
04:30 PM 46.9°F8.3°C 45.3°F7.4°C 94% 26.0 mph S41.8 kmh S 40.0 mph64.4 kmh 29.84 in1010.5 mb 0.00 in0.0 mm 0.00 in0.0 mm 0.00 in0.0 mm
04:33 PM 46.9°F8.3°C 45.3°F7.4°C 94% 25.0 mph S40.2 kmh S 40.0 mph64.4 kmh 29.85 in1010.8 mb 0.00 in0.0 mm 0.00 in0.0 mm 0.00 in0.0 mm
04:36 PM 46.9°F8.3°C 45.3°F7.4°C 94% 24.0 mph S38.6 kmh S 37.0 mph59.5 kmh 29.85 in1010.8 mb 0.00 in0.0 mm 0.00 in0.0 mm 0.00 in0.0 mm
04:39 PM 46.9°F8.3°C 45.3°F7.4°C 94% 21.0 mph S33.8 kmh S 34.0 mph54.7 kmh 29.85 in1010.8 mb 0.00 in0.0 mm 0.00 in0.0 mm 0.00 in0.0 mm
04:42 PM 46.9°F8.3°C 45.3°F7.4°C 94% 18.0 mph S29.0 kmh S 30.0 mph48.3 kmh 29.85 in1010.8 mb 0.00 in0.0 mm 0.00 in0.0 mm 0.00 in0.0 mm
04:45 PM 46.9°F8.3°C 45.3°F7.4°C 94% 16.0 mph S25.7 kmh S 28.0 mph45.1 kmh 29.86 in1011.2 mb 0.00 in0.0 mm 0.00 in0.0 mm 0.00 in0.0 mm
04:48 PM 46.9°F8.3°C 45.3°F7.4°C 94% 14.0 mph S22.5 kmh S 24.0 mph38.6 kmh 29.86 in1011.2 mb 0.00 in0.0 mm 0.00 in0.0 mm 0.00 in0.0 mm
04:51 PM 46.9°F8.3°C 45.3°F7.4°C 94% 13.0 mph S20.9 kmh S 23.0 mph37.0 kmh 29.86 in1011.2 mb 0.00 in0.0 mm 0.00 in0.0 mm 0.00 in0.0 mm
04:54 PM 46.9°F8.3°C 45.3°F7.4°C 94% 11.0 mph S17.7 kmh S 23.0 mph37.0 kmh 29.86 in1011.2 mb 0.00 in0.0 mm 0.00 in0.0 mm 0.00 in0.0 mm
04:57 PM 46.9°F8.3°C 45.3°F7.4°C 94% 9.0 mph S14.5 kmh S 18.0 mph29.0 kmh 29.86 in1011.2 mb 0.00 in0.0 mm 0.00 in0.0 mm 0.00 in0.0 mm
05:00 PM 46.9°F8.3°C 45.3°F7.4°C 94% 8.0 mph S12.9 kmh S 17.0 mph27.4 kmh 29.86 in1011.2 mb 0.00 in0.0 mm 0.00 in0.0 mm 0.00 in0.0 mm
05:03 PM 46.9°F8.3°C 45.3°F7.4°C 94% 8.0 mph S12.9 kmh S 14.0 mph22.5 kmh 29.86 in1011.2 mb 0.00 in0.0 mm 0.00 in0.0 mm 0.00 in0.0 mm
05:06 PM 46.9°F8.3°C 45.3°F7.4°C 94% 7.0 mph S11.3 kmh S 13.0 mph20.9 kmh 29.86 in1011.2 mb 0.00 in0.0 mm 0.00 in0.0 mm 0.00 in0.0 mm
05:09 PM 46.9°F8.3°C 45.3°F7.4°C 94% 8.0 mph S12.9 kmh S 13.0 mph20.9 kmh 29.86 in1011.2 mb 0.00 in0.0 mm 0.00 in0.0 mm 0.00 in0.0 mm
05:12 PM 46.9°F8.3°C 45.3°F7.4°C 94% 7.0 mph S11.3 kmh S 12.0 mph19.3 kmh 29.86 in1011.2 mb 0.00 in0.0 mm 0.00 in0.0 mm 0.00 in0.0 mm
05:15 PM 46.9°F8.3°C 45.3°F7.4°C 94% 8.0 mph S12.9 kmh S 13.0 mph20.9 kmh 29.86 in1011.2 mb 0.00 in0.0 mm 0.00 in0.0 mm 0.00 in0.0 mm
05:18 PM 46.9°F8.3°C 45.3°F7.4°C 94% 8.0 mph S12.9 kmh S 13.0 mph20.9 kmh 29.85 in1010.8 mb 0.00 in0.0 mm 0.00 in0.0 mm 0.00 in0.0 mm
05:21 PM 46.9°F8.3°C 45.3°F7.4°C 94% 8.0 mph S12.9 kmh S 13.0 mph20.9 kmh 29.85 in1010.8 mb 0.00 in0.0 mm 0.00 in0.0 mm 0.00 in0.0 mm
05:24 PM 46.9°F8.3°C 45.3°F7.4°C 94% 8.0 mph S12.9 kmh S 13.0 mph20.9 kmh 29.85 in1010.8 mb 0.00 in0.0 mm 0.00 in0.0 mm 0.00 in0.0 mm
05:27 PM 46.9°F8.3°C 45.3°F7.4°C 94% 7.0 mph S11.3 kmh S 12.0 mph19.3 kmh 29.84 in1010.5 mb 0.00 in0.0 mm 0.00 in0.0 mm 0.00 in0.0 mm
05:30 PM 46.9°F8.3°C 45.3°F7.4°C 94% 8.0 mph S12.9 kmh S 15.0 mph24.1 kmh 29.85 in1010.8 mb 0.00 in0.0 mm 0.00 in0.0 mm 0.00 in0.0 mm
05:33 PM 46.9°F8.3°C 45.3°F7.4°C 94% 8.0 mph S12.9 kmh S 15.0 mph24.1 kmh 29.86 in1011.2 mb 0.00 in0.0 mm 0.00 in0.0 mm 0.00 in0.0 mm
05:36 PM 46.9°F8.3°C 45.3°F7.4°C 94% 9.0 mph S14.5 kmh S 15.0 mph24.1 kmh 29.86 in1011.2 mb 0.00 in0.0 mm 0.00 in0.0 mm 0.00 in0.0 mm
05:39 PM 46.9°F8.3°C 45.3°F7.4°C 94% 9.0 mph S14.5 kmh S 15.0 mph24.1 kmh 29.85 in1010.8 mb 0.00 in0.0 mm 0.00 in0.0 mm 0.00 in0.0 mm
05:42 PM 46.9°F8.3°C 45.3°F7.4°C 94% 8.0 mph S12.9 kmh S 14.0 mph22.5 kmh 29.85 in1010.8 mb 0.00 in0.0 mm 0.00 in0.0 mm 0.00 in0.0 mm
05:45 PM 46.9°F8.3°C 45.3°F7.4°C 94% 8.0 mph S12.9 kmh S 14.0 mph22.5 kmh 29.86 in1011.2 mb 0.00 in0.0 mm 0.00 in0.0 mm 0.00 in0.0 mm
05:48 PM 46.9°F8.3°C 45.3°F7.4°C 94% 8.0 mph S12.9 kmh S 14.0 mph22.5 kmh 29.86 in1011.2 mb 0.00 in0.0 mm 0.00 in0.0 mm 0.00 in0.0 mm
05:51 PM 46.9°F8.3°C 45.3°F7.4°C 94% 9.0 mph S14.5 kmh S 15.0 mph24.1 kmh 29.86 in1011.2 mb 0.00 in0.0 mm 0.00 in0.0 mm 0.00 in0.0 mm
05:54 PM 46.9°F8.3°C 45.3°F7.4°C 94% 10.0 mph S16.1 kmh S 16.0 mph25.7 kmh 29.86 in1011.2 mb 0.00 in0.0 mm 0.00 in0.0 mm 0.00 in0.0 mm
05:57 PM 46.9°F8.3°C 45.3°F7.4°C 94% 12.0 mph S19.3 kmh S 20.0 mph32.2 kmh 29.86 in1011.2 mb 0.00 in0.0 mm 0.00 in0.0 mm 0.00 in0.0 mm
06:00 PM 46.9°F8.3°C 45.3°F7.4°C 94% 13.0 mph S20.9 kmh S 20.0 mph32.2 kmh 29.86 in1011.2 mb 0.00 in0.0 mm 0.00 in0.0 mm 0.00 in0.0 mm
06:03 PM 46.9°F8.3°C 45.3°F7.4°C 94% 13.0 mph S20.9 kmh S 20.0 mph32.2 kmh 29.86 in1011.2 mb 0.00 in0.0 mm 0.00 in0.0 mm 0.00 in0.0 mm
06:06 PM 46.9°F8.3°C 45.3°F7.4°C 94% 12.0 mph S19.3 kmh S 20.0 mph32.2 kmh 29.86 in1011.2 mb 0.00 in0.0 mm 0.00 in0.0 mm 0.00 in0.0 mm
06:09 PM 46.9°F8.3°C 45.3°F7.4°C 94% 11.0 mph S17.7 kmh S 18.0 mph29.0 kmh 29.85 in1010.8 mb 0.00 in0.0 mm 0.00 in0.0 mm 0.00 in0.0 mm
06:12 PM 46.9°F8.3°C 45.3°F7.4°C 94% 9.0 mph S14.5 kmh S 18.0 mph29.0 kmh 29.85 in1010.8 mb 0.00 in0.0 mm 0.00 in0.0 mm 0.00 in0.0 mm
06:15 PM 46.9°F8.3°C 45.3°F7.4°C 94% 8.0 mph S12.9 kmh S 13.0 mph20.9 kmh 29.86 in1011.2 mb 0.00 in0.0 mm 0.00 in0.0 mm 0.00 in0.0 mm
06:18 PM 46.9°F8.3°C 45.3°F7.4°C 94% 7.0 mph S11.3 kmh S 11.0 mph17.7 kmh 29.85 in1010.8 mb 0.00 in0.0 mm 0.00 in0.0 mm 0.00 in0.0 mm
06:21 PM 46.9°F8.3°C 45.3°F7.4°C 94% 6.0 mph S9.7 kmh S 11.0 mph17.7 kmh 29.84 in1010.5 mb 0.00 in0.0 mm 0.00 in0.0 mm 0.00 in0.0 mm
06:24 PM 46.9°F8.3°C 45.3°F7.4°C 94% 6.0 mph SSE9.7 kmh SSE 11.0 mph17.7 kmh 29.83 in1010.2 mb 0.00 in0.0 mm 0.00 in0.0 mm 0.00 in0.0 mm
06:27 PM 46.9°F8.3°C 45.3°F7.4°C 94% 5.0 mph SE8.0 kmh SE 8.0 mph12.9 kmh 29.83 in1010.2 mb 0.00 in0.0 mm 0.00 in0.0 mm 0.00 in0.0 mm
06:30 PM 46.9°F8.3°C 45.3°F7.4°C 94% 5.0 mph SSE8.0 kmh SSE 10.0 mph16.1 kmh 29.85 in1010.8 mb 0.00 in0.0 mm 0.00 in0.0 mm 0.00 in0.0 mm
06:33 PM 46.9°F8.3°C 45.3°F7.4°C 94% 7.0 mph SSE11.3 kmh SSE 15.0 mph24.1 kmh 29.86 in1011.2 mb 0.00 in0.0 mm 0.00 in0.0 mm 0.00 in0.0 mm
06:36 PM 46.9°F8.3°C 45.3°F7.4°C 94% 8.0 mph S12.9 kmh S 15.0 mph24.1 kmh 29.86 in1011.2 mb 0.00 in0.0 mm 0.00 in0.0 mm 0.00 in0.0 mm
06:39 PM 46.9°F8.3°C 45.3°F7.4°C 94% 10.0 mph S16.1 kmh S 15.0 mph24.1 kmh 29.86 in1011.2 mb 0.00 in0.0 mm 0.00 in0.0 mm 0.00 in0.0 mm
06:42 PM 46.9°F8.3°C 45.3°F7.4°C 94% 10.0 mph S16.1 kmh S 14.0 mph22.5 kmh 29.86 in1011.2 mb 0.00 in0.0 mm 0.00 in0.0 mm 0.00 in0.0 mm
06:45 PM 46.9°F8.3°C 45.3°F7.4°C 94% 10.0 mph S16.1 kmh S 19.0 mph30.6 kmh 29.86 in1011.2 mb 0.00 in0.0 mm 0.00 in0.0 mm 0.00 in0.0 mm
06:48 PM 46.9°F8.3°C 45.3°F7.4°C 94% 10.0 mph S16.1 kmh S 19.0 mph30.6 kmh 29.86 in1011.2 mb 0.00 in0.0 mm 0.00 in0.0 mm 0.00 in0.0 mm
06:51 PM 46.9°F8.3°C 45.3°F7.4°C 94% 10.0 mph S16.1 kmh S 19.0 mph30.6 kmh 29.86 in1011.2 mb 0.00 in0.0 mm 0.00 in0.0 mm 0.00 in0.0 mm
06:54 PM 46.9°F8.3°C 45.3°F7.4°C 94% 9.0 mph S14.5 kmh S 16.0 mph25.7 kmh 29.86 in1011.2 mb 0.00 in0.0 mm 0.00 in0.0 mm 0.00 in0.0 mm
06:57 PM 46.9°F8.3°C 45.3°F7.4°C 94% 10.0 mph S16.1 kmh S 16.0 mph25.7 kmh 29.86 in1011.2 mb 0.00 in0.0 mm 0.00 in0.0 mm 0.00 in0.0 mm
07:00 PM 46.9°F8.3°C 45.3°F7.4°C 94% 10.0 mph S16.1 kmh S 15.0 mph24.1 kmh 29.86 in1011.2 mb 0.00 in0.0 mm 0.00 in0.0 mm 0.00 in0.0 mm
07:03 PM 46.9°F8.3°C 45.3°F7.4°C 94% 10.0 mph SSE16.1 kmh SSE 17.0 mph27.4 kmh 29.86 in1011.2 mb 0.00 in0.0 mm 0.00 in0.0 mm 0.00 in0.0 mm
07:06 PM 46.9°F8.3°C 45.3°F7.4°C 94% 11.0 mph S17.7 kmh S 17.0 mph27.4 kmh 29.86 in1011.2 mb 0.00 in0.0 mm 0.00 in0.0 mm 0.00 in0.0 mm
07:09 PM 46.9°F8.3°C 45.3°F7.4°C 94% 11.0 mph S17.7 kmh S 18.0 mph29.0 kmh 29.86 in1011.2 mb 0.00 in0.0 mm 0.00 in0.0 mm 0.00 in0.0 mm
07:12 PM 46.9°F8.3°C 45.3°F7.4°C 94% 12.0 mph S19.3 kmh S 18.0 mph29.0 kmh 29.86 in1011.2 mb 0.00 in0.0 mm 0.00 in0.0 mm 0.00 in0.0 mm
07:15 PM 46.9°F8.3°C 45.3°F7.4°C 94% 12.0 mph S19.3 kmh S 18.0 mph29.0 kmh 29.86 in1011.2 mb 0.00 in0.0 mm 0.00 in0.0 mm 0.00 in0.0 mm
07:18 PM 46.9°F8.3°C 45.3°F7.4°C 94% 11.0 mph S17.7 kmh S 17.0 mph27.4 kmh 29.86 in1011.2 mb 0.00 in0.0 mm 0.00 in0.0 mm 0.00 in0.0 mm
07:21 PM 46.9°F8.3°C 45.3°F7.4°C 94% 11.0 mph SSE17.7 kmh SSE 19.0 mph30.6 kmh 29.86 in1011.2 mb 0.00 in0.0 mm 0.00 in0.0 mm 0.00 in0.0 mm
07:24 PM 46.9°F8.3°C 45.3°F7.4°C 94% 10.0 mph SSE16.1 kmh SSE 19.0 mph30.6 kmh 29.85 in1010.8 mb 0.00 in0.0 mm 0.00 in0.0 mm 0.00 in0.0 mm
07:27 PM 46.9°F8.3°C 45.3°F7.4°C 94% 9.0 mph S14.5 kmh S 19.0 mph30.6 kmh 29.85 in1010.8 mb 0.00 in0.0 mm 0.00 in0.0 mm 0.00 in0.0 mm
07:30 PM 46.9°F8.3°C 45.3°F7.4°C 94% 6.0 mph S9.7 kmh S 16.0 mph25.7 kmh 29.85 in1010.8 mb 0.00 in0.0 mm 0.00 in0.0 mm 0.00 in0.0 mm
07:33 PM 46.9°F8.3°C 45.3°F7.4°C 94% 4.0 mph S6.4 kmh S 12.0 mph19.3 kmh 29.84 in1010.5 mb 0.00 in0.0 mm 0.00 in0.0 mm 0.00 in0.0 mm
07:36 PM 46.9°F8.3°C 45.3°F7.4°C 94% 2.0 mph SSW3.2 kmh SSW 7.0 mph11.3 kmh 29.86 in1011.2 mb 0.00 in0.0 mm 0.00 in0.0 mm 0.00 in0.0 mm
07:39 PM 46.9°F8.3°C 45.3°F7.4°C 94% 2.0 mph SW3.2 kmh SW 6.0 mph9.7 kmh 29.86 in1011.2 mb 0.00 in0.0 mm 0.00 in0.0 mm 0.00 in0.0 mm
07:42 PM 46.9°F8.3°C 45.3°F7.4°C 94% 3.0 mph SW4.8 kmh SW 6.0 mph9.7 kmh 29.86 in1011.2 mb 0.00 in0.0 mm 0.00 in0.0 mm 0.00 in0.0 mm
07:45 PM 46.9°F8.3°C 45.3°F7.4°C 94% 3.0 mph SW4.8 kmh SW 7.0 mph11.3 kmh 29.86 in1011.2 mb 0.00 in0.0 mm 0.00 in0.0 mm 0.00 in0.0 mm
07:48 PM 46.9°F8.3°C 45.3°F7.4°C 94% 3.0 mph SW4.8 kmh SW 8.0 mph12.9 kmh 29.88 in1011.9 mb 0.00 in0.0 mm 0.00 in0.0 mm 0.00 in0.0 mm
07:51 PM 46.9°F8.3°C 45.3°F7.4°C 94% 4.0 mph WSW6.4 kmh WSW 10.0 mph16.1 kmh 29.87 in1011.5 mb 0.00 in0.0 mm 0.00 in0.0 mm 0.00 in0.0 mm
07:54 PM 46.9°F8.3°C 45.3°F7.4°C 94% 5.0 mph WSW8.0 kmh WSW 10.0 mph16.1 kmh 29.86 in1011.2 mb 0.00 in0.0 mm 0.00 in0.0 mm 0.00 in0.0 mm
07:57 PM 46.9°F8.3°C 45.3°F7.4°C 94% 5.0 mph WSW8.0 kmh WSW 10.0 mph16.1 kmh 29.88 in1011.9 mb 0.00 in0.0 mm 0.00 in0.0 mm 0.00 in0.0 mm
08:00 PM 46.9°F8.3°C 45.3°F7.4°C 94% 4.0 mph WSW6.4 kmh WSW 10.0 mph16.1 kmh 29.87 in1011.5 mb 0.00 in0.0 mm 0.00 in0.0 mm 0.00 in0.0 mm
08:03 PM 46.9°F8.3°C 45.3°F7.4°C 94% 5.0 mph WSW8.0 kmh WSW 9.0 mph14.5 kmh 29.88 in1011.9 mb 0.00 in0.0 mm 0.00 in0.0 mm 0.00 in0.0 mm
08:06 PM 46.9°F8.3°C 45.3°F7.4°C 94% 5.0 mph WSW8.0 kmh WSW 10.0 mph16.1 kmh 29.88 in1011.9 mb 0.00 in0.0 mm 0.00 in0.0 mm 0.00 in0.0 mm
08:09 PM 46.9°F8.3°C 45.3°F7.4°C 94% 5.0 mph WSW8.0 kmh WSW 10.0 mph16.1 kmh 29.87 in1011.5 mb 0.00 in0.0 mm 0.00 in0.0 mm 0.00 in0.0 mm
08:12 PM 46.9°F8.3°C 45.3°F7.4°C 94% 4.0 mph WSW6.4 kmh WSW 10.0 mph16.1 kmh 29.87 in1011.5 mb 0.00 in0.0 mm 0.00 in0.0 mm 0.00 in0.0 mm
08:15 PM 46.9°F8.3°C 45.3°F7.4°C 94% 3.0 mph W4.8 kmh W 8.0 mph12.9 kmh 29.87 in1011.5 mb 0.00 in0.0 mm 0.00 in0.0 mm 0.00 in0.0 mm
08:18 PM 46.9°F8.3°C 45.3°F7.4°C 94% 3.0 mph W4.8 kmh W 8.0 mph12.9 kmh 29.86 in1011.2 mb 0.00 in0.0 mm 0.00 in0.0 mm 0.00 in0.0 mm
08:21 PM 46.9°F8.3°C 45.3°F7.4°C 94% 4.0 mph W6.4 kmh W 9.0 mph14.5 kmh 29.87 in1011.5 mb 0.00 in0.0 mm 0.00 in0.0 mm 0.00 in0.0 mm
08:24 PM 46.9°F8.3°C 45.3°F7.4°C 94% 3.0 mph W4.8 kmh W 9.0 mph14.5 kmh 29.88 in1011.9 mb 0.00 in0.0 mm 0.00 in0.0 mm 0.00 in0.0 mm
08:27 PM 46.9°F8.3°C 45.3°F7.4°C 94% 3.0 mph W4.8 kmh W 9.0 mph14.5 kmh 29.88 in1011.9 mb 0.00 in0.0 mm 0.00 in0.0 mm 0.00 in0.0 mm
08:30 PM 46.9°F8.3°C 45.3°F7.4°C 94% 4.0 mph WSW6.4 kmh WSW 9.0 mph14.5 kmh 29.88 in1011.9 mb 0.00 in0.0 mm 0.00 in0.0 mm 0.00 in0.0 mm
08:33 PM 46.9°F8.3°C 45.3°F7.4°C 94% 4.0 mph WSW6.4 kmh WSW 8.0 mph12.9 kmh 29.88 in1011.9 mb 0.00 in0.0 mm 0.00 in0.0 mm 0.00 in0.0 mm
08:36 PM 46.9°F8.3°C 45.3°F7.4°C 94% 3.0 mph WSW4.8 kmh WSW 8.0 mph12.9 kmh 29.88 in1011.9 mb 0.00 in0.0 mm 0.00 in0.0 mm 0.00 in0.0 mm
08:39 PM 46.9°F8.3°C 45.3°F7.4°C 94% 3.0 mph WSW4.8 kmh WSW 8.0 mph12.9 kmh 29.88 in1011.9 mb 0.00 in0.0 mm 0.00 in0.0 mm 0.00 in0.0 mm
08:42 PM 46.9°F8.3°C 45.3°F7.4°C 94% 3.0 mph WSW4.8 kmh WSW 7.0 mph11.3 kmh 29.88 in1011.9 mb 0.00 in0.0 mm 0.00 in0.0 mm 0.00 in0.0 mm
08:45 PM 46.9°F8.3°C 45.3°F7.4°C 94% 3.0 mph WSW4.8 kmh WSW 7.0 mph11.3 kmh 29.88 in1011.9 mb 0.00 in0.0 mm 0.00 in0.0 mm 0.00 in0.0 mm
08:48 PM 46.9°F8.3°C 45.3°F7.4°C 94% 3.0 mph WSW4.8 kmh WSW 7.0 mph11.3 kmh 29.89 in1012.2 mb 0.00 in0.0 mm 0.00 in0.0 mm 0.00 in0.0 mm
08:51 PM 46.9°F8.3°C 45.3°F7.4°C 94% 3.0 mph WSW4.8 kmh WSW 7.0 mph11.3 kmh 29.89 in1012.2 mb 0.00 in0.0 mm 0.00 in0.0 mm 0.00 in0.0 mm
08:54 PM 46.9°F8.3°C 45.3°F7.4°C 94% 3.0 mph WSW4.8 kmh WSW 8.0 mph12.9 kmh 29.89 in1012.2 mb 0.00 in0.0 mm 0.00 in0.0 mm 0.00 in0.0 mm
08:57 PM 46.9°F8.3°C 45.3°F7.4°C 94% 3.0 mph W4.8 kmh W 8.0 mph12.9 kmh 29.89 in1012.2 mb 0.00 in0.0 mm 0.00 in0.0 mm 0.00 in0.0 mm
09:00 PM 46.9°F8.3°C 45.3°F7.4°C 94% 3.0 mph W4.8 kmh W 8.0 mph12.9 kmh 29.89 in1012.2 mb 0.00 in0.0 mm 0.00 in0.0 mm 0.00 in0.0 mm
09:03 PM 46.9°F8.3°C 45.3°F7.4°C 94% 3.0 mph W4.8 kmh W 8.0 mph12.9 kmh 29.90 in1012.5 mb 0.00 in0.0 mm 0.00 in0.0 mm 0.00 in0.0 mm
09:06 PM 46.9°F8.3°C 45.3°F7.4°C 94% 3.0 mph W4.8 kmh W 7.0 mph11.3 kmh 29.90 in1012.5 mb 0.00 in0.0 mm 0.00 in0.0 mm 0.00 in0.0 mm
09:09 PM 46.9°F8.3°C 45.3°F7.4°C 94% 3.0 mph W4.8 kmh W 7.0 mph11.3 kmh 29.89 in1012.2 mb 0.00 in0.0 mm 0.00 in0.0 mm 0.00 in0.0 mm
09:12 PM 46.9°F8.3°C 45.3°F7.4°C 94% 2.0 mph W3.2 kmh W 7.0 mph11.3 kmh 29.90 in1012.5 mb 0.00 in0.0 mm 0.00 in0.0 mm 0.00 in0.0 mm
09:15 PM 46.9°F8.3°C 45.3°F7.4°C 94% 3.0 mph W4.8 kmh W 9.0 mph14.5 kmh 29.90 in1012.5 mb 0.00 in0.0 mm 0.00 in0.0 mm 0.00 in0.0 mm
09:18 PM 46.9°F8.3°C 45.3°F7.4°C 94% 3.0 mph W4.8 kmh W 9.0 mph14.5 kmh 29.90 in1012.5 mb 0.00 in0.0 mm 0.00 in0.0 mm 0.00 in0.0 mm
09:21 PM 46.9°F8.3°C 45.3°F7.4°C 94% 3.0 mph W4.8 kmh W 9.0 mph14.5 kmh 29.90 in1012.5 mb 0.00 in0.0 mm 0.00 in0.0 mm 0.00 in0.0 mm
09:24 PM 46.9°F8.3°C 45.3°F7.4°C 94% 4.0 mph W6.4 kmh W 10.0 mph16.1 kmh 29.91 in1012.9 mb 0.00 in0.0 mm 0.00 in0.0 mm 0.00 in0.0 mm
09:27 PM 46.9°F8.3°C 45.3°F7.4°C 94% 4.0 mph W6.4 kmh W 10.0 mph16.1 kmh 29.91 in1012.9 mb 0.00 in0.0 mm 0.00 in0.0 mm 0.00 in0.0 mm
09:30 PM 46.9°F8.3°C 45.3°F7.4°C 94% 4.0 mph W6.4 kmh W 10.0 mph16.1 kmh 29.91 in1012.9 mb 0.00 in0.0 mm 0.00 in0.0 mm 0.00 in0.0 mm
09:33 PM 46.9°F8.3°C 45.3°F7.4°C 94% 4.0 mph W6.4 kmh W 10.0 mph16.1 kmh 29.91 in1012.9 mb 0.00 in0.0 mm 0.00 in0.0 mm 0.00 in0.0 mm
09:36 PM 46.9°F8.3°C 45.3°F7.4°C 94% 3.0 mph WNW4.8 kmh WNW 9.0 mph14.5 kmh 29.91 in1012.9 mb 0.00 in0.0 mm 0.00 in0.0 mm 0.00 in0.0 mm
09:39 PM 46.9°F8.3°C 45.3°F7.4°C 94% 3.0 mph WNW4.8 kmh WNW 9.0 mph14.5 kmh 29.91 in1012.9 mb 0.00 in0.0 mm 0.00 in0.0 mm 0.00 in0.0 mm
09:42 PM 46.9°F8.3°C 45.3°F7.4°C 94% 3.0 mph WNW4.8 kmh WNW 9.0 mph14.5 kmh 29.91 in1012.9 mb 0.00 in0.0 mm 0.00 in0.0 mm 0.00 in0.0 mm
09:45 PM 46.9°F8.3°C 45.3°F7.4°C 94% 3.0 mph WNW4.8 kmh WNW 8.0 mph12.9 kmh 29.92 in1013.2 mb 0.00 in0.0 mm 0.00 in0.0 mm 0.00 in0.0 mm
09:48 PM 46.9°F8.3°C 45.3°F7.4°C 94% 3.0 mph WNW4.8 kmh WNW 9.0 mph14.5 kmh 29.92 in1013.2 mb 0.00 in0.0 mm 0.00 in0.0 mm 0.00 in0.0 mm
09:51 PM 46.9°F8.3°C 45.3°F7.4°C 94% 3.0 mph W4.8 kmh W 9.0 mph14.5 kmh 29.92 in1013.2 mb 0.00 in0.0 mm 0.00 in0.0 mm 0.00 in0.0 mm
09:54 PM 46.9°F8.3°C 45.3°F7.4°C 94% 4.0 mph W6.4 kmh W 10.0 mph16.1 kmh 29.92 in1013.2 mb 0.00 in0.0 mm 0.00 in0.0 mm 0.00 in0.0 mm
09:57 PM 46.9°F8.3°C 45.3°F7.4°C 94% 4.0 mph W6.4 kmh W 12.0 mph19.3 kmh 29.92 in1013.2 mb 0.00 in0.0 mm 0.00 in0.0 mm 0.00 in0.0 mm
10:00 PM 46.9°F8.3°C 45.3°F7.4°C 94% 5.0 mph W8.0 kmh W 12.0 mph19.3 kmh 29.92 in1013.2 mb 0.00 in0.0 mm 0.00 in0.0 mm 0.00 in0.0 mm
10:03 PM 46.9°F8.3°C 45.3°F7.4°C 94% 5.0 mph WNW8.0 kmh WNW 12.0 mph19.3 kmh 29.92 in1013.2 mb 0.00 in0.0 mm 0.00 in0.0 mm 0.00 in0.0 mm
10:06 PM 46.9°F8.3°C 45.3°F7.4°C 94% 4.0 mph WNW6.4 kmh WNW 10.0 mph16.1 kmh 29.92 in1013.2 mb 0.00 in0.0 mm 0.00 in0.0 mm 0.00 in0.0 mm
10:09 PM 46.9°F8.3°C 45.3°F7.4°C 94% 4.0 mph WNW6.4 kmh WNW 10.0 mph16.1 kmh 29.92 in1013.2 mb 0.00 in0.0 mm 0.00 in0.0 mm 0.00 in0.0 mm
10:12 PM 46.9°F8.3°C 45.3°F7.4°C 94% 3.0 mph WNW4.8 kmh WNW 9.0 mph14.5 kmh 29.92 in1013.2 mb 0.00 in0.0 mm 0.00 in0.0 mm 0.00 in0.0 mm
10:15 PM 46.9°F8.3°C 45.3°F7.4°C 94% 2.0 mph NW3.2 kmh NW 6.0 mph9.7 kmh 29.92 in1013.2 mb 0.00 in0.0 mm 0.00 in0.0 mm 0.00 in0.0 mm
10:18 PM 46.9°F8.3°C 45.3°F7.4°C 94% 2.0 mph NW3.2 kmh NW 6.0 mph9.7 kmh 29.92 in1013.2 mb 0.00 in0.0 mm 0.00 in0.0 mm 0.00 in0.0 mm
10:21 PM 46.9°F8.3°C 45.3°F7.4°C 94% 3.0 mph WNW4.8 kmh WNW 7.0 mph11.3 kmh 29.92 in1013.2 mb 0.00 in0.0 mm 0.00 in0.0 mm 0.00 in0.0 mm
10:24 PM 46.9°F8.3°C 45.3°F7.4°C 94% 3.0 mph NW4.8 kmh NW 7.0 mph11.3 kmh 29.92 in1013.2 mb 0.00 in0.0 mm 0.00 in0.0 mm 0.00 in0.0 mm
10:27 PM 46.9°F8.3°C 45.3°F7.4°C 94% 2.0 mph NW3.2 kmh NW 7.0 mph11.3 kmh 29.92 in1013.2 mb 0.00 in0.0 mm 0.00 in0.0 mm 0.00 in0.0 mm
10:30 PM 46.9°F8.3°C 45.3°F7.4°C 94% 2.0 mph NW3.2 kmh NW 6.0 mph9.7 kmh 29.92 in1013.2 mb 0.00 in0.0 mm 0.00 in0.0 mm 0.00 in0.0 mm
10:33 PM 46.9°F8.3°C 45.3°F7.4°C 94% 2.0 mph NW3.2 kmh NW 5.0 mph8.0 kmh 29.92 in1013.2 mb 0.00 in0.0 mm 0.00 in0.0 mm 0.00 in0.0 mm
10:36 PM 46.9°F8.3°C 45.3°F7.4°C 94% 4.0 mph NW6.4 kmh NW 14.0 mph22.5 kmh 29.92 in1013.2 mb 0.00 in0.0 mm 0.00 in0.0 mm 0.00 in0.0 mm
10:39 PM 46.9°F8.3°C 45.3°F7.4°C 94% 6.0 mph NNW9.7 kmh NNW 14.0 mph22.5 kmh 29.92 in1013.2 mb 0.00 in0.0 mm 0.00 in0.0 mm 0.00 in0.0 mm
10:42 PM 46.9°F8.3°C 45.3°F7.4°C 94% 7.0 mph NNW11.3 kmh NNW 14.0 mph22.5 kmh 29.92 in1013.2 mb 0.00 in0.0 mm 0.00 in0.0 mm 0.00 in0.0 mm
10:45 PM 46.9°F8.3°C 45.3°F7.4°C 94% 7.0 mph NNW11.3 kmh NNW 13.0 mph20.9 kmh 29.92 in1013.2 mb 0.00 in0.0 mm 0.00 in0.0 mm 0.00 in0.0 mm
10:48 PM 46.9°F8.3°C 45.3°F7.4°C 94% 7.0 mph NNW11.3 kmh NNW 13.0 mph20.9 kmh 29.92 in1013.2 mb 0.00 in0.0 mm 0.00 in0.0 mm 0.00 in0.0 mm
10:51 PM 46.9°F8.3°C 45.3°F7.4°C 94% 6.0 mph NNW9.7 kmh NNW 11.0 mph17.7 kmh 29.92 in1013.2 mb 0.00 in0.0 mm 0.00 in0.0 mm 0.00 in0.0 mm
10:54 PM 46.9°F8.3°C 45.3°F7.4°C 94% 5.0 mph NNW8.0 kmh NNW 11.0 mph17.7 kmh 29.92 in1013.2 mb 0.00 in0.0 mm 0.00 in0.0 mm 0.00 in0.0 mm
10:57 PM 46.9°F8.3°C 45.3°F7.4°C 94% 4.0 mph NNW6.4 kmh NNW 11.0 mph17.7 kmh 29.92 in1013.2 mb 0.00 in0.0 mm 0.00 in0.0 mm 0.00 in0.0 mm
11:00 PM 46.9°F8.3°C 45.3°F7.4°C 94% 4.0 mph NNW6.4 kmh NNW 9.0 mph14.5 kmh 29.92 in1013.2 mb 0.00 in0.0 mm 0.00 in0.0 mm 0.00 in0.0 mm
11:03 PM 46.9°F8.3°C 45.3°F7.4°C 94% 4.0 mph NNW6.4 kmh NNW 9.0 mph14.5 kmh 29.92 in1013.2 mb 0.00 in0.0 mm 0.00 in0.0 mm 0.00 in0.0 mm
11:06 PM 46.9°F8.3°C 45.3°F7.4°C 94% 3.0 mph NNW4.8 kmh NNW 9.0 mph14.5 kmh 29.92 in1013.2 mb 0.00 in0.0 mm 0.00 in0.0 mm 0.00 in0.0 mm
11:09 PM 46.9°F8.3°C 45.3°F7.4°C 94% 3.0 mph NNW4.8 kmh NNW 8.0 mph12.9 kmh 29.93 in1013.5 mb 0.00 in0.0 mm 0.00 in0.0 mm 0.00 in0.0 mm
11:12 PM 46.9°F8.3°C 45.3°F7.4°C 94% 2.0 mph NNW3.2 kmh NNW 4.0 mph6.4 kmh 29.93 in1013.5 mb 0.00 in0.0 mm 0.00 in0.0 mm 0.00 in0.0 mm
11:15 PM 46.9°F8.3°C 45.3°F7.4°C 94% 2.0 mph NW3.2 kmh NW 4.0 mph6.4 kmh 29.93 in1013.5 mb 0.00 in0.0 mm 0.00 in0.0 mm 0.00 in0.0 mm
11:18 PM 46.9°F8.3°C 45.3°F7.4°C 94% 2.0 mph NW3.2 kmh NW 4.0 mph6.4 kmh 29.93 in1013.5 mb 0.00 in0.0 mm 0.00 in0.0 mm 0.00 in0.0 mm
11:21 PM 46.9°F8.3°C 45.3°F7.4°C 94% 2.0 mph NW3.2 kmh NW 4.0 mph6.4 kmh 29.93 in1013.5 mb 0.00 in0.0 mm 0.00 in0.0 mm 0.00 in0.0 mm
11:24 PM 46.9°F8.3°C 45.3°F7.4°C 94% 2.0 mph NW3.2 kmh NW 4.0 mph6.4 kmh 29.94 in1013.9 mb 0.00 in0.0 mm 0.00 in0.0 mm 0.00 in0.0 mm
11:27 PM 46.9°F8.3°C 45.3°F7.4°C 94% 2.0 mph NW3.2 kmh NW 3.0 mph4.8 kmh 29.93 in1013.5 mb 0.00 in0.0 mm 0.00 in0.0 mm 0.00 in0.0 mm
11:30 PM 46.9°F8.3°C 45.3°F7.4°C 94% 2.0 mph NW3.2 kmh NW 4.0 mph6.4 kmh 29.93 in1013.5 mb 0.00 in0.0 mm 0.00 in0.0 mm 0.00 in0.0 mm
11:33 PM 46.9°F8.3°C 45.3°F7.4°C 94% 2.0 mph NW3.2 kmh NW 4.0 mph6.4 kmh 29.93 in1013.5 mb 0.00 in0.0 mm 0.00 in0.0 mm 0.00 in0.0 mm
11:36 PM 46.9°F8.3°C 45.3°F7.4°C 94% 2.0 mph WNW3.2 kmh WNW 6.0 mph9.7 kmh 29.94 in1013.9 mb 0.00 in0.0 mm 0.00 in0.0 mm 0.00 in0.0 mm
11:39 PM 46.9°F8.3°C 45.3°F7.4°C 94% 2.0 mph W3.2 kmh W 6.0 mph9.7 kmh 29.94 in1013.9 mb 0.00 in0.0 mm 0.00 in0.0 mm 0.00 in0.0 mm
11:42 PM 46.9°F8.3°C 45.3°F7.4°C 94% 3.0 mph W4.8 kmh W 7.0 mph11.3 kmh 29.95 in1014.2 mb 0.00 in0.0 mm 0.00 in0.0 mm 0.00 in0.0 mm
11:45 PM 46.9°F8.3°C 45.3°F7.4°C 94% 3.0 mph WNW4.8 kmh WNW 7.0 mph11.3 kmh 29.95 in1014.2 mb 0.00 in0.0 mm 0.00 in0.0 mm 0.00 in0.0 mm
11:48 PM 46.9°F8.3°C 45.3°F7.4°C 94% 3.0 mph WNW4.8 kmh WNW 7.0 mph11.3 kmh 29.95 in1014.2 mb 0.00 in0.0 mm 0.00 in0.0 mm 0.00 in0.0 mm
11:51 PM 46.9°F8.3°C 45.3°F7.4°C 94% 3.0 mph WNW4.8 kmh WNW 7.0 mph11.3 kmh 29.95 in1014.2 mb 0.00 in0.0 mm 0.00 in0.0 mm 0.00 in0.0 mm
11:54 PM 46.9°F8.3°C 45.3°F7.4°C 94% 3.0 mph WNW4.8 kmh WNW 7.0 mph11.3 kmh 29.95 in1014.2 mb 0.00 in0.0 mm 0.00 in0.0 mm 0.00 in0.0 mm
11:57 PM 46.9°F8.3°C 45.3°F7.4°C 94% 2.0 mph WNW3.2 kmh WNW 7.0 mph11.3 kmh 29.95 in1014.2 mb 0.00 in0.0 mm 0.00 in0.0 mm 0.00 in0.0 mm